<?xml version='1.0' encoding='UTF-8'?><gpx version="1.1" creator="JPX - https://github.com/jenetics/jpx" xmlns="http://www.topografix.com/GPX/1/1"><trk><trkseg><trkpt lat="43.7825677181436" lon="10.92193839231302"><ele>66.0</ele><time>2026-04-12T07:53:20.999Z</time></trkpt><trkpt lat="43.78250700747709" lon="10.921866312306175"><ele>66.0</ele><time>2026-04-12T07:53:25.999Z</time></trkpt><trkpt lat="43.78251268138288" lon="10.921767482935092"><ele>66.0</ele><time>2026-04-12T07:53:30.999Z</time></trkpt><trkpt lat="43.782587183325816" lon="10.92174752163862"><ele>66.0</ele><time>2026-04-12T07:53:35.999Z</time></trkpt><trkpt lat="43.78264975753487" lon="10.921689836509751"><ele>66.0</ele><time>2026-04-12T07:53:40Z</time></trkpt><trkpt lat="43.782706651461986" lon="10.921639148232371"><ele>66.0</ele><time>2026-04-12T07:53:43Z</time></trkpt><trkpt lat="43.78277073608204" lon="10.921592003168442"><ele>66.0</ele><time>2026-04-12T07:53:46Z</time></trkpt><trkpt lat="43.78283683809476" lon="10.921522234632436"><ele>65.33333333333333</ele><time>2026-04-12T07:53:49Z</time></trkpt><trkpt lat="43.78289669588588" lon="10.921468493275297"><ele>64.66666666666667</ele><time>2026-04-12T07:53:52Z</time></trkpt><trkpt lat="43.782971332331094" lon="10.921518422753701"><ele>64.0</ele><time>2026-04-12T07:53:56Z</time></trkpt><trkpt lat="43.78303086496137" lon="10.921582608566952"><ele>63.333333333333336</ele><time>2026-04-12T07:54:00Z</time></trkpt><trkpt lat="43.78306167620811" lon="10.921677721215737"><ele>62.66666666666667</ele><time>2026-04-12T07:54:03Z</time></trkpt><trkpt lat="43.78311233881108" lon="10.921772963349149"><ele>62.0</ele><time>2026-04-12T07:54:07Z</time></trkpt><trkpt lat="43.78316015355062" lon="10.921865057520408"><ele>62.0</ele><time>2026-04-12T07:54:11Z</time></trkpt><trkpt lat="43.78319551078188" lon="10.921939503053636"><ele>62.00000000000001</ele><time>2026-04-12T07:54:14Z</time></trkpt><trkpt lat="43.78321910168781" lon="10.92204628661911"><ele>62.0</ele><time>2026-04-12T07:54:17Z</time></trkpt><trkpt lat="43.78325430991164" lon="10.922130678148864"><ele>62.0</ele><time>2026-04-12T07:54:21Z</time></trkpt><trkpt lat="43.78328857861478" lon="10.922204483280664"><ele>62.00000000000001</ele><time>2026-04-12T07:54:24Z</time></trkpt><trkpt lat="43.7833253366279" lon="10.922289310248162"><ele>62.0</ele><time>2026-04-12T07:54:27Z</time></trkpt><trkpt lat="43.78336994824367" lon="10.922389685278324"><ele>62.0</ele><time>2026-04-12T07:54:31Z</time></trkpt><trkpt lat="43.78341292771941" lon="10.922461736759614"><ele>62.0</ele><time>2026-04-12T07:54:34Z</time></trkpt><trkpt lat="43.783453265138355" lon="10.922530116881253"><ele>62.00000000000001</ele><time>2026-04-12T07:54:37Z</time></trkpt><trkpt lat="43.78350706943959" lon="10.922597634318565"><ele>62.0</ele><time>2026-04-12T07:54:40Z</time></trkpt><trkpt lat="43.78354277293424" lon="10.922682647941716"><ele>62.0</ele><time>2026-04-12T07:54:43Z</time></trkpt><trkpt lat="43.78357966074787" lon="10.922762865621465"><ele>62.00000000000001</ele><time>2026-04-12T07:54:46Z</time></trkpt><trkpt lat="43.78361450831763" lon="10.922844074568115"><ele>62.0</ele><time>2026-04-12T07:54:49Z</time></trkpt><trkpt lat="43.78365274816902" lon="10.922930415455532"><ele>62.0</ele><time>2026-04-12T07:54:52Z</time></trkpt><trkpt lat="43.78368558738601" lon="10.92301128434342"><ele>62.00000000000001</ele><time>2026-04-12T07:54:55Z</time></trkpt><trkpt lat="43.783725163027846" lon="10.923085334076019"><ele>62.0</ele><time>2026-04-12T07:54:58Z</time></trkpt><trkpt lat="43.78377869556402" lon="10.923179945434123"><ele>62.0</ele><time>2026-04-12T07:55:02Z</time></trkpt><trkpt lat="43.78382118293478" lon="10.923276807293744"><ele>62.0</ele><time>2026-04-12T07:55:06Z</time></trkpt><trkpt lat="43.783869932174156" lon="10.923380696016624"><ele>62.00000000000001</ele><time>2026-04-12T07:55:10Z</time></trkpt><trkpt lat="43.78389519695744" lon="10.923463768625139"><ele>62.0</ele><time>2026-04-12T07:55:13Z</time></trkpt><trkpt lat="43.78393225498003" lon="10.923544195211065"><ele>63.16666666666667</ele><time>2026-04-12T07:55:16Z</time></trkpt><trkpt lat="43.783976345963886" lon="10.923647994317394"><ele>64.33333333333334</ele><time>2026-04-12T07:55:20Z</time></trkpt><trkpt lat="43.78401675288645" lon="10.923750209322069"><ele>65.5</ele><time>2026-04-12T07:55:23.997Z</time></trkpt><trkpt lat="43.78405794123911" lon="10.923823006487066"><ele>66.66666666666667</ele><time>2026-04-12T07:55:26.998Z</time></trkpt><trkpt lat="43.78410491327157" lon="10.92391277259078"><ele>67.83333333333333</ele><time>2026-04-12T07:55:30.998Z</time></trkpt><trkpt lat="43.78413803089112" lon="10.923988346445931"><ele>69.0</ele><time>2026-04-12T07:55:33.998Z</time></trkpt><trkpt lat="43.78417810411237" lon="10.924074522189022"><ele>69.0</ele><time>2026-04-12T07:55:37.998Z</time></trkpt><trkpt lat="43.78422132683377" lon="10.924162273336277"><ele>69.0</ele><time>2026-04-12T07:55:41.999Z</time></trkpt><trkpt lat="43.7842695568555" lon="10.92424311697145"><ele>69.0</ele><time>2026-04-12T07:55:45.999Z</time></trkpt><trkpt lat="43.78430959963525" lon="10.924338702537518"><ele>69.0</ele><time>2026-04-12T07:55:49.999Z</time></trkpt><trkpt lat="43.78431291719025" lon="10.924448867348335"><ele>69.0</ele><time>2026-04-12T07:55:54.999Z</time></trkpt><trkpt lat="43.78431825990635" lon="10.924540445238176"><ele>69.0</ele><time>2026-04-12T07:55:59Z</time></trkpt><trkpt lat="43.78438126848397" lon="10.924621497151747"><ele>69.42857142857143</ele><time>2026-04-12T07:56:02Z</time></trkpt><trkpt lat="43.78443816634863" lon="10.924704238499407"><ele>69.85714285714286</ele><time>2026-04-12T07:56:05Z</time></trkpt><trkpt lat="43.784496611015285" lon="10.924765438806217"><ele>70.28571428571429</ele><time>2026-04-12T07:56:08Z</time></trkpt><trkpt lat="43.78455520517797" lon="10.924835538637065"><ele>70.71428571428572</ele><time>2026-04-12T07:56:11Z</time></trkpt><trkpt lat="43.784614348563274" lon="10.924887280680501"><ele>71.14285714285714</ele><time>2026-04-12T07:56:14Z</time></trkpt><trkpt lat="43.78466309126117" lon="10.924944434414417"><ele>71.57142857142858</ele><time>2026-04-12T07:56:17Z</time></trkpt><trkpt lat="43.78472739888283" lon="10.924957696587501"><ele>72.0</ele><time>2026-04-12T07:56:20Z</time></trkpt><trkpt lat="43.784785072530404" lon="10.925037437265674"><ele>71.57142857142858</ele><time>2026-04-12T07:56:23Z</time></trkpt><trkpt lat="43.78484382212317" lon="10.925099456149864"><ele>71.14285714285714</ele><time>2026-04-12T07:56:26Z</time></trkpt><trkpt lat="43.78490383277613" lon="10.925150296021439"><ele>70.71428571428572</ele><time>2026-04-12T07:56:29Z</time></trkpt><trkpt lat="43.78496132054399" lon="10.925190360574232"><ele>70.28571428571429</ele><time>2026-04-12T07:56:32.001Z</time></trkpt><trkpt lat="43.78501785304407" lon="10.925251977669726"><ele>69.85714285714286</ele><time>2026-04-12T07:56:35.001Z</time></trkpt><trkpt lat="43.7850884031151" lon="10.925312344544766"><ele>69.42857142857143</ele><time>2026-04-12T07:56:39.001Z</time></trkpt><trkpt lat="43.78515384214563" lon="10.925353616738246"><ele>69.0</ele><time>2026-04-12T07:56:42.001Z</time></trkpt><trkpt lat="43.78520709945479" lon="10.925405166839376"><ele>69.71428571428572</ele><time>2026-04-12T07:56:45.001Z</time></trkpt><trkpt lat="43.78526031788229" lon="10.925464893572226"><ele>70.42857142857143</ele><time>2026-04-12T07:56:49.001Z</time></trkpt><trkpt lat="43.78531363554896" lon="10.925519480946857"><ele>71.14285714285714</ele><time>2026-04-12T07:56:52.001Z</time></trkpt><trkpt lat="43.78536745518243" lon="10.92560196624087"><ele>71.85714285714286</ele><time>2026-04-12T07:56:56.001Z</time></trkpt><trkpt lat="43.78540700397469" lon="10.925692320096223"><ele>72.57142857142857</ele><time>2026-04-12T07:57:00.001Z</time></trkpt><trkpt lat="43.785461603936845" lon="10.925775322465386"><ele>73.28571428571429</ele><time>2026-04-12T07:57:05.001Z</time></trkpt><trkpt lat="43.78550692229046" lon="10.925853623488862"><ele>74.0</ele><time>2026-04-12T07:57:09.001Z</time></trkpt><trkpt lat="43.785546224137825" lon="10.92592212406046"><ele>74.0</ele><time>2026-04-12T07:57:12.001Z</time></trkpt><trkpt lat="43.785582855340195" lon="10.925993738663905"><ele>74.0</ele><time>2026-04-12T07:57:15.001Z</time></trkpt><trkpt lat="43.785605156411215" lon="10.92608680128591"><ele>74.0</ele><time>2026-04-12T07:57:19.001Z</time></trkpt><trkpt lat="43.78566167427514" lon="10.926173148242295"><ele>74.0</ele><time>2026-04-12T07:57:23.002Z</time></trkpt><trkpt lat="43.7857052205734" lon="10.926238490652329"><ele>74.0</ele><time>2026-04-12T07:57:26.002Z</time></trkpt><trkpt lat="43.78574808825431" lon="10.926315833083246"><ele>74.0</ele><time>2026-04-12T07:57:28.999Z</time></trkpt><trkpt lat="43.78579059747675" lon="10.926393256694931"><ele>74.0</ele><time>2026-04-12T07:57:31.999Z</time></trkpt><trkpt lat="43.78582170742099" lon="10.926493726441693"><ele>74.0</ele><time>2026-04-12T07:57:35.999Z</time></trkpt><trkpt lat="43.78587775170072" lon="10.926542661799235"><ele>74.0</ele><time>2026-04-12T07:57:38.999Z</time></trkpt><trkpt lat="43.785947334766526" lon="10.926607273507472"><ele>74.0</ele><time>2026-04-12T07:57:42.999Z</time></trkpt><trkpt lat="43.78599263141435" lon="10.926674768160602"><ele>74.0</ele><time>2026-04-12T07:57:45.999Z</time></trkpt><trkpt lat="43.78605824279408" lon="10.926737623006881"><ele>74.0</ele><time>2026-04-12T07:57:50Z</time></trkpt><trkpt lat="43.78610645688803" lon="10.926800686043999"><ele>74.0</ele><time>2026-04-12T07:57:53Z</time></trkpt><trkpt lat="43.78615844201907" lon="10.926862315227375"><ele>74.0</ele><time>2026-04-12T07:57:56Z</time></trkpt><trkpt lat="43.786211273033686" lon="10.926913228047683"><ele>74.42857142857143</ele><time>2026-04-12T07:57:59Z</time></trkpt><trkpt lat="43.78627508395395" lon="10.926943246609136"><ele>74.85714285714286</ele><time>2026-04-12T07:58:02Z</time></trkpt><trkpt lat="43.78632971599679" lon="10.927008757240234"><ele>75.28571428571428</ele><time>2026-04-12T07:58:06Z</time></trkpt><trkpt lat="43.78637802405584" lon="10.927075235725225"><ele>75.71428571428572</ele><time>2026-04-12T07:58:09Z</time></trkpt><trkpt lat="43.786441142993034" lon="10.927133276007673"><ele>76.14285714285714</ele><time>2026-04-12T07:58:12Z</time></trkpt><trkpt lat="43.78651068177732" lon="10.927196869651569"><ele>76.57142857142857</ele><time>2026-04-12T07:58:16Z</time></trkpt><trkpt lat="43.78656071531395" lon="10.927259104609714"><ele>77.0</ele><time>2026-04-12T07:58:19.001Z</time></trkpt><trkpt lat="43.786616547644336" lon="10.927307559615798"><ele>77.0</ele><time>2026-04-12T07:58:22.001Z</time></trkpt><trkpt lat="43.78668883966558" lon="10.927336848409034"><ele>77.0</ele><time>2026-04-12T07:58:25.001Z</time></trkpt><trkpt lat="43.786751925453096" lon="10.927379210612225"><ele>77.0</ele><time>2026-04-12T07:58:28.001Z</time></trkpt><trkpt lat="43.78682056919227" lon="10.927422064004478"><ele>77.0</ele><time>2026-04-12T07:58:31.001Z</time></trkpt><trkpt lat="43.78688883205273" lon="10.927466341956139"><ele>77.0</ele><time>2026-04-12T07:58:34.001Z</time></trkpt><trkpt lat="43.78695328223549" lon="10.927503797687706"><ele>77.0</ele><time>2026-04-12T07:58:37.001Z</time></trkpt><trkpt lat="43.78702530311926" lon="10.92755325058472"><ele>77.0</ele><time>2026-04-12T07:58:40.001Z</time></trkpt><trkpt lat="43.78708665576473" lon="10.927593161801322"><ele>76.16666666666667</ele><time>2026-04-12T07:58:43.001Z</time></trkpt><trkpt lat="43.78715977845342" lon="10.927648036248733"><ele>75.33333333333334</ele><time>2026-04-12T07:58:46.001Z</time></trkpt><trkpt lat="43.78722432125439" lon="10.927659227211791"><ele>74.5</ele><time>2026-04-12T07:58:49.001Z</time></trkpt><trkpt lat="43.787295354154146" lon="10.92770021034652"><ele>73.66666666666667</ele><time>2026-04-12T07:58:52.001Z</time></trkpt><trkpt lat="43.78735646139662" lon="10.927751566299621"><ele>72.83333333333333</ele><time>2026-04-12T07:58:55.001Z</time></trkpt><trkpt lat="43.78743487706569" lon="10.92781441532866"><ele>72.0</ele><time>2026-04-12T07:58:58.002Z</time></trkpt><trkpt lat="43.787496426051625" lon="10.927859731720089"><ele>72.0</ele><time>2026-04-12T07:59:01.002Z</time></trkpt><trkpt lat="43.787573159377345" lon="10.927921518239048"><ele>72.0</ele><time>2026-04-12T07:59:04.002Z</time></trkpt><trkpt lat="43.787648391655786" lon="10.927980150187096"><ele>72.0</ele><time>2026-04-12T07:59:07.002Z</time></trkpt><trkpt lat="43.78770243178396" lon="10.928030790370538"><ele>72.0</ele><time>2026-04-12T07:59:09.002Z</time></trkpt><trkpt lat="43.7877671024579" lon="10.92808974196456"><ele>72.0</ele><time>2026-04-12T07:59:12.002Z</time></trkpt><trkpt lat="43.78782779881411" lon="10.928126007998728"><ele>72.0</ele><time>2026-04-12T07:59:15.002Z</time></trkpt><trkpt lat="43.78789650699744" lon="10.928152603174814"><ele>73.66666666666667</ele><time>2026-04-12T07:59:18.002Z</time></trkpt><trkpt lat="43.78796829909385" lon="10.92819343001349"><ele>75.33333333333333</ele><time>2026-04-12T07:59:21.002Z</time></trkpt><trkpt lat="43.78805070688792" lon="10.928222807871691"><ele>77.0</ele><time>2026-04-12T07:59:24.002Z</time></trkpt><trkpt lat="43.78813906745029" lon="10.928255669498194"><ele>78.66666666666666</ele><time>2026-04-12T07:59:28.002Z</time></trkpt><trkpt lat="43.7882038184358" lon="10.928300351540386"><ele>80.33333333333333</ele><time>2026-04-12T07:59:31.002Z</time></trkpt><trkpt lat="43.78827234330632" lon="10.92832790231393"><ele>82.0</ele><time>2026-04-12T07:59:34.002Z</time></trkpt><trkpt lat="43.78834584032838" lon="10.928331245329922"><ele>82.0</ele><time>2026-04-12T07:59:37Z</time></trkpt><trkpt lat="43.7884192837769" lon="10.92834300302203"><ele>82.0</ele><time>2026-04-12T07:59:40Z</time></trkpt><trkpt lat="43.78848180980746" lon="10.92835487211535"><ele>82.0</ele><time>2026-04-12T07:59:43Z</time></trkpt><trkpt lat="43.788562605923175" lon="10.9283806378485"><ele>82.0</ele><time>2026-04-12T07:59:47Z</time></trkpt><trkpt lat="43.78863919796007" lon="10.928391309763102"><ele>82.0</ele><time>2026-04-12T07:59:50Z</time></trkpt><trkpt lat="43.78872226090682" lon="10.928417385748077"><ele>82.0</ele><time>2026-04-12T07:59:54Z</time></trkpt><trkpt lat="43.78878682067338" lon="10.928445204991814"><ele>82.28571428571428</ele><time>2026-04-12T07:59:57Z</time></trkpt><trkpt lat="43.788849621865666" lon="10.928457170275498"><ele>82.57142857142857</ele><time>2026-04-12T08:00:00Z</time></trkpt><trkpt lat="43.78892230158138" lon="10.928500150885597"><ele>82.85714285714286</ele><time>2026-04-12T08:00:03Z</time></trkpt><trkpt lat="43.788982931924274" lon="10.928543396846814"><ele>83.14285714285714</ele><time>2026-04-12T08:00:06Z</time></trkpt><trkpt lat="43.78903871428119" lon="10.9286095983223"><ele>83.42857142857143</ele><time>2026-04-12T08:00:09Z</time></trkpt><trkpt lat="43.78910677017355" lon="10.928675319427358"><ele>83.71428571428571</ele><time>2026-04-12T08:00:13Z</time></trkpt><trkpt lat="43.78916374138593" lon="10.928725994171872"><ele>84.0</ele><time>2026-04-12T08:00:16.001Z</time></trkpt><trkpt lat="43.78922446852096" lon="10.928799408768993"><ele>84.0</ele><time>2026-04-12T08:00:20.001Z</time></trkpt><trkpt lat="43.78928280540515" lon="10.928838536655311"><ele>84.0</ele><time>2026-04-12T08:00:23.001Z</time></trkpt><trkpt lat="43.7893459525878" lon="10.928874477642092"><ele>84.0</ele><time>2026-04-12T08:00:26.001Z</time></trkpt><trkpt lat="43.789419451032124" lon="10.928909763082656"><ele>84.0</ele><time>2026-04-12T08:00:29.001Z</time></trkpt><trkpt lat="43.78948448415968" lon="10.928933901302207"><ele>84.0</ele><time>2026-04-12T08:00:32.001Z</time></trkpt><trkpt lat="43.78954882558349" lon="10.928948562969378"><ele>84.0</ele><time>2026-04-12T08:00:35.001Z</time></trkpt><trkpt lat="43.78961222439482" lon="10.928972947825677"><ele>84.0</ele><time>2026-04-12T08:00:38.001Z</time></trkpt><trkpt lat="43.78967968704167" lon="10.928980405749675"><ele>85.33333333333333</ele><time>2026-04-12T08:00:41.001Z</time></trkpt><trkpt lat="43.78974830081908" lon="10.92898439236099"><ele>86.66666666666667</ele><time>2026-04-12T08:00:44.001Z</time></trkpt><trkpt lat="43.78981581898142" lon="10.92901717292551"><ele>88.0</ele><time>2026-04-12T08:00:47.001Z</time></trkpt><trkpt lat="43.7898933079606" lon="10.929034999999233"><ele>89.33333333333334</ele><time>2026-04-12T08:00:50.001Z</time></trkpt><trkpt lat="43.78996869424952" lon="10.929049903625286"><ele>90.66666666666667</ele><time>2026-04-12T08:00:54.001Z</time></trkpt><trkpt lat="43.79005086859679" lon="10.929040199240008"><ele>92.0</ele><time>2026-04-12T08:00:58.002Z</time></trkpt><trkpt lat="43.79012996643075" lon="10.92907187313452"><ele>92.71428571428572</ele><time>2026-04-12T08:01:01.002Z</time></trkpt><trkpt lat="43.7901915122796" lon="10.929099319240622"><ele>93.42857142857142</ele><time>2026-04-12T08:01:04.002Z</time></trkpt><trkpt lat="43.79026396572786" lon="10.929140669711582"><ele>94.14285714285714</ele><time>2026-04-12T08:01:07.002Z</time></trkpt><trkpt lat="43.79033374263866" lon="10.929164413171904"><ele>94.85714285714286</ele><time>2026-04-12T08:01:10.002Z</time></trkpt><trkpt lat="43.79040378937303" lon="10.929199267738918"><ele>95.57142857142858</ele><time>2026-04-12T08:01:13.002Z</time></trkpt><trkpt lat="43.79048576892882" lon="10.929235238499697"><ele>96.28571428571428</ele><time>2026-04-12T08:01:16.002Z</time></trkpt><trkpt lat="43.79054477503959" lon="10.929268971215135"><ele>97.0</ele><time>2026-04-12T08:01:19.002Z</time></trkpt><trkpt lat="43.7906214772356" lon="10.929291738465732"><ele>98.50000000000001</ele><time>2026-04-12T08:01:22.002Z</time></trkpt><trkpt lat="43.79068699559805" lon="10.929306988128674"><ele>100.0</ele><time>2026-04-12T08:01:25.002Z</time></trkpt><trkpt lat="43.790762823630466" lon="10.929299343901608"><ele>101.5</ele><time>2026-04-12T08:01:28.002Z</time></trkpt><trkpt lat="43.79083508508359" lon="10.929258701211145"><ele>103.0</ele><time>2026-04-12T08:01:31.002Z</time></trkpt><trkpt lat="43.79090660127587" lon="10.92926924118244"><ele>104.50000000000001</ele><time>2026-04-12T08:01:34.002Z</time></trkpt><trkpt lat="43.79099886454178" lon="10.929253819681144"><ele>106.0</ele><time>2026-04-12T08:01:37.002Z</time></trkpt><trkpt lat="43.79107535051067" lon="10.929271445854802"><ele>105.00000000000001</ele><time>2026-04-12T08:01:40.003Z</time></trkpt><trkpt lat="43.79114996936805" lon="10.929262495497278"><ele>104.0</ele><time>2026-04-12T08:01:43Z</time></trkpt><trkpt lat="43.791212948419016" lon="10.929232193783287"><ele>103.0</ele><time>2026-04-12T08:01:45Z</time></trkpt><trkpt lat="43.79129849258287" lon="10.929227634854207"><ele>102.0</ele><time>2026-04-12T08:01:48Z</time></trkpt><trkpt lat="43.791388023281364" lon="10.929206272458597"><ele>101.00000000000001</ele><time>2026-04-12T08:01:51Z</time></trkpt><trkpt lat="43.791476802300615" lon="10.929219646326839"><ele>100.0</ele><time>2026-04-12T08:01:54Z</time></trkpt><trkpt lat="43.7915632784963" lon="10.92918749056423"><ele>100.00000000000001</ele><time>2026-04-12T08:01:57Z</time></trkpt><trkpt lat="43.79163399334612" lon="10.929141051174739"><ele>100.0</ele><time>2026-04-12T08:02:00Z</time></trkpt><trkpt lat="43.791713956510044" lon="10.929113255153773"><ele>100.0</ele><time>2026-04-12T08:02:03Z</time></trkpt><trkpt lat="43.7918003300958" lon="10.929100245822823"><ele>100.0</ele><time>2026-04-12T08:02:07Z</time></trkpt><trkpt lat="43.791872478852035" lon="10.929082573463548"><ele>100.00000000000001</ele><time>2026-04-12T08:02:10Z</time></trkpt><trkpt lat="43.791941445569705" lon="10.929078541146826"><ele>100.0</ele><time>2026-04-12T08:02:13Z</time></trkpt><trkpt lat="43.79201423916405" lon="10.929074463823042"><ele>100.00000000000001</ele><time>2026-04-12T08:02:16Z</time></trkpt><trkpt lat="43.79208626529918" lon="10.929045578069848"><ele>100.0</ele><time>2026-04-12T08:02:19.001Z</time></trkpt><trkpt lat="43.79215867252198" lon="10.929029429449603"><ele>100.0</ele><time>2026-04-12T08:02:22.001Z</time></trkpt><trkpt lat="43.79222325449203" lon="10.92898632713765"><ele>100.0</ele><time>2026-04-12T08:02:25.001Z</time></trkpt><trkpt lat="43.7922799055661" lon="10.928918004912065"><ele>100.0</ele><time>2026-04-12T08:02:28.001Z</time></trkpt><trkpt lat="43.792329181033004" lon="10.928845493345873"><ele>100.00000000000001</ele><time>2026-04-12T08:02:31.001Z</time></trkpt><trkpt lat="43.79238514596613" lon="10.928783863688508"><ele>100.0</ele><time>2026-04-12T08:02:34.001Z</time></trkpt><trkpt lat="43.792455969769904" lon="10.9287200263833"><ele>100.00000000000001</ele><time>2026-04-12T08:02:37.001Z</time></trkpt><trkpt lat="43.79252811582326" lon="10.928683833120152"><ele>100.0</ele><time>2026-04-12T08:02:40.001Z</time></trkpt><trkpt lat="43.79258805090906" lon="10.928626343178314"><ele>100.0</ele><time>2026-04-12T08:02:43.001Z</time></trkpt><trkpt lat="43.7926500368384" lon="10.928588613954151"><ele>100.0</ele><time>2026-04-12T08:02:46.001Z</time></trkpt><trkpt lat="43.79271512856616" lon="10.92853841786121"><ele>100.00000000000001</ele><time>2026-04-12T08:02:50.001Z</time></trkpt><trkpt lat="43.79279386978914" lon="10.928517068333997"><ele>100.0</ele><time>2026-04-12T08:02:54.001Z</time></trkpt><trkpt lat="43.792879575405415" lon="10.928518860638315"><ele>100.57142857142858</ele><time>2026-04-12T08:02:59.001Z</time></trkpt><trkpt lat="43.79294660121165" lon="10.928532431234949"><ele>101.14285714285714</ele><time>2026-04-12T08:03:02.002Z</time></trkpt><trkpt lat="43.79301200459492" lon="10.92851811309276"><ele>101.71428571428572</ele><time>2026-04-12T08:03:06.002Z</time></trkpt><trkpt lat="43.793075603445665" lon="10.928526616481001"><ele>102.28571428571429</ele><time>2026-04-12T08:03:09.002Z</time></trkpt><trkpt lat="43.79315839794062" lon="10.928519603062316"><ele>102.85714285714286</ele><time>2026-04-12T08:03:13.002Z</time></trkpt><trkpt lat="43.79324216868114" lon="10.928516197143367"><ele>103.42857142857143</ele><time>2026-04-12T08:03:17.002Z</time></trkpt><trkpt lat="43.79332244907912" lon="10.92851706265478"><ele>104.0</ele><time>2026-04-12T08:03:21.002Z</time></trkpt><trkpt lat="43.7933852939833" lon="10.928483809243637"><ele>104.0</ele><time>2026-04-12T08:03:25.002Z</time></trkpt><trkpt lat="43.793455012027174" lon="10.928472465731094"><ele>104.0</ele><time>2026-04-12T08:03:29.002Z</time></trkpt><trkpt lat="43.79351912359126" lon="10.928469169893285"><ele>104.0</ele><time>2026-04-12T08:03:32.002Z</time></trkpt><trkpt lat="43.79359716702509" lon="10.928461422052271"><ele>104.0</ele><time>2026-04-12T08:03:36.002Z</time></trkpt><trkpt lat="43.793672811113794" lon="10.928449038641894"><ele>104.0</ele><time>2026-04-12T08:03:40.002Z</time></trkpt><trkpt lat="43.79374547514659" lon="10.9284335512874"><ele>104.0</ele><time>2026-04-12T08:03:44.003Z</time></trkpt><trkpt lat="43.79381906762255" lon="10.928430981037351"><ele>104.0</ele><time>2026-04-12T08:03:48Z</time></trkpt><trkpt lat="43.79389879560931" lon="10.928423865049888"><ele>104.85714285714285</ele><time>2026-04-12T08:03:52Z</time></trkpt><trkpt lat="43.793970525090074" lon="10.928392132745518"><ele>105.71428571428572</ele><time>2026-04-12T08:03:56Z</time></trkpt><trkpt lat="43.79405095726575" lon="10.928385209899819"><ele>106.57142857142857</ele><time>2026-04-12T08:04:00Z</time></trkpt><trkpt lat="43.794120437078085" lon="10.928390609739754"><ele>107.42857142857142</ele><time>2026-04-12T08:04:04Z</time></trkpt><trkpt lat="43.79418513929223" lon="10.928391347630829"><ele>108.28571428571428</ele><time>2026-04-12T08:04:08Z</time></trkpt><trkpt lat="43.79426272669914" lon="10.92840193793261"><ele>109.14285714285714</ele><time>2026-04-12T08:04:12Z</time></trkpt><trkpt lat="43.794327012393346" lon="10.92843471203896"><ele>110.0</ele><time>2026-04-12T08:04:16Z</time></trkpt><trkpt lat="43.79439662679088" lon="10.928497157434458"><ele>111.71428571428571</ele><time>2026-04-12T08:04:21.001Z</time></trkpt><trkpt lat="43.79445577829205" lon="10.92854233738252"><ele>113.42857142857142</ele><time>2026-04-12T08:04:24.001Z</time></trkpt><trkpt lat="43.79452637552279" lon="10.928563433252773"><ele>115.14285714285714</ele><time>2026-04-12T08:04:28.001Z</time></trkpt><trkpt lat="43.79459227110919" lon="10.928623840767765"><ele>116.85714285714285</ele><time>2026-04-12T08:04:32.001Z</time></trkpt><trkpt lat="43.79465091366668" lon="10.928681999858146"><ele>118.57142857142857</ele><time>2026-04-12T08:04:36.001Z</time></trkpt><trkpt lat="43.794714758784735" lon="10.928725799613394"><ele>120.28571428571426</ele><time>2026-04-12T08:04:40.001Z</time></trkpt><trkpt lat="43.79478714802658" lon="10.928769091174438"><ele>121.99999999999999</ele><time>2026-04-12T08:04:44.001Z</time></trkpt><trkpt lat="43.794836351126946" lon="10.928837309726212"><ele>121.99999999999999</ele><time>2026-04-12T08:04:47.001Z</time></trkpt><trkpt lat="43.794886837591655" lon="10.928889522860862"><ele>122.0</ele><time>2026-04-12T08:04:50.001Z</time></trkpt><trkpt lat="43.794947195382875" lon="10.928918338126762"><ele>121.99999999999999</ele><time>2026-04-12T08:04:53.001Z</time></trkpt><trkpt lat="43.79500375202349" lon="10.928959655246137"><ele>121.99999999999999</ele><time>2026-04-12T08:04:56.001Z</time></trkpt><trkpt lat="43.795066230432916" lon="10.928993646104374"><ele>122.0</ele><time>2026-04-12T08:04:59.001Z</time></trkpt><trkpt lat="43.79513904845479" lon="10.929050182301486"><ele>121.99999999999999</ele><time>2026-04-12T08:05:03.001Z</time></trkpt><trkpt lat="43.79520745784249" lon="10.929077145487742"><ele>121.99999999999999</ele><time>2026-04-12T08:05:07.002Z</time></trkpt><trkpt lat="43.795299013648574" lon="10.9290924692317"><ele>122.85714285714283</ele><time>2026-04-12T08:05:11.002Z</time></trkpt><trkpt lat="43.79536646364184" lon="10.929084424358468"><ele>123.71428571428571</ele><time>2026-04-12T08:05:14.002Z</time></trkpt><trkpt lat="43.795437951612854" lon="10.929062560466344"><ele>124.57142857142856</ele><time>2026-04-12T08:05:17.002Z</time></trkpt><trkpt lat="43.79550312917538" lon="10.929024149426418"><ele>125.42857142857142</ele><time>2026-04-12T08:05:20.002Z</time></trkpt><trkpt lat="43.79557870814434" lon="10.92897925571749"><ele>126.28571428571428</ele><time>2026-04-12T08:05:23.002Z</time></trkpt><trkpt lat="43.79563690311142" lon="10.928912392647568"><ele>127.14285714285714</ele><time>2026-04-12T08:05:26.002Z</time></trkpt><trkpt lat="43.795707377297376" lon="10.928866570891943"><ele>128.0</ele><time>2026-04-12T08:05:29.002Z</time></trkpt><trkpt lat="43.79576978467992" lon="10.928800531323697"><ele>128.0</ele><time>2026-04-12T08:05:32.002Z</time></trkpt><trkpt lat="43.79583344723762" lon="10.928751254799975"><ele>127.99999999999999</ele><time>2026-04-12T08:05:35.002Z</time></trkpt><trkpt lat="43.795888300764595" lon="10.928688222580476"><ele>128.0</ele><time>2026-04-12T08:05:38.002Z</time></trkpt><trkpt lat="43.79594839332018" lon="10.928633783021384"><ele>128.0</ele><time>2026-04-12T08:05:41.002Z</time></trkpt><trkpt lat="43.79601552037197" lon="10.928591259229561"><ele>127.99999999999999</ele><time>2026-04-12T08:05:44.002Z</time></trkpt><trkpt lat="43.79608018072147" lon="10.928538070989843"><ele>128.0</ele><time>2026-04-12T08:05:47.003Z</time></trkpt><trkpt lat="43.796151293474885" lon="10.928499513488255"><ele>128.0</ele><time>2026-04-12T08:05:50.003Z</time></trkpt><trkpt lat="43.79623001659423" lon="10.928453238706327"><ele>127.57142857142857</ele><time>2026-04-12T08:05:54Z</time></trkpt><trkpt lat="43.79630181251402" lon="10.928430943288895"><ele>127.14285714285714</ele><time>2026-04-12T08:05:57Z</time></trkpt><trkpt lat="43.796387552965584" lon="10.928407351783433"><ele>126.71428571428571</ele><time>2026-04-12T08:06:01Z</time></trkpt><trkpt lat="43.79645325383131" lon="10.928381990065109"><ele>126.28571428571428</ele><time>2026-04-12T08:06:04Z</time></trkpt><trkpt lat="43.796520520679536" lon="10.928396746801203"><ele>125.85714285714286</ele><time>2026-04-12T08:06:07Z</time></trkpt><trkpt lat="43.796588463139244" lon="10.928374025392527"><ele>125.42857142857142</ele><time>2026-04-12T08:06:10Z</time></trkpt><trkpt lat="43.79665638242165" lon="10.928386706981986"><ele>125.0</ele><time>2026-04-12T08:06:13Z</time></trkpt><trkpt lat="43.796723518297476" lon="10.928386037005"><ele>127.33333333333333</ele><time>2026-04-12T08:06:16Z</time></trkpt><trkpt lat="43.796802988595886" lon="10.928406874914987"><ele>129.66666666666666</ele><time>2026-04-12T08:06:20Z</time></trkpt><trkpt lat="43.79687701829432" lon="10.928451009841558"><ele>132.0</ele><time>2026-04-12T08:06:23Z</time></trkpt><trkpt lat="43.79695705628749" lon="10.928481585144176"><ele>134.33333333333334</ele><time>2026-04-12T08:06:27Z</time></trkpt><trkpt lat="43.79702760987136" lon="10.928550353873467"><ele>136.66666666666669</ele><time>2026-04-12T08:06:31.001Z</time></trkpt><trkpt lat="43.79708809385664" lon="10.92862390529345"><ele>139.0</ele><time>2026-04-12T08:06:34.001Z</time></trkpt><trkpt lat="43.79715196444535" lon="10.928682194510074"><ele>139.28571428571428</ele><time>2026-04-12T08:06:38.001Z</time></trkpt><trkpt lat="43.79722072196042" lon="10.928746428745384"><ele>139.57142857142858</ele><time>2026-04-12T08:06:41.001Z</time></trkpt><trkpt lat="43.79728062860317" lon="10.928777998511793"><ele>139.85714285714286</ele><time>2026-04-12T08:06:44.001Z</time></trkpt><trkpt lat="43.79736300266252" lon="10.928781807403677"><ele>140.14285714285714</ele><time>2026-04-12T08:06:47.001Z</time></trkpt><trkpt lat="43.797433135615954" lon="10.928747590353439"><ele>140.42857142857142</ele><time>2026-04-12T08:06:50.001Z</time></trkpt><trkpt lat="43.797488279773205" lon="10.928685939749476"><ele>140.71428571428572</ele><time>2026-04-12T08:06:53.001Z</time></trkpt><trkpt lat="43.79753115936064" lon="10.928610803949121"><ele>141.0</ele><time>2026-04-12T08:06:56.001Z</time></trkpt><trkpt lat="43.79760054692909" lon="10.928542364024137"><ele>141.0</ele><time>2026-04-12T08:06:59.001Z</time></trkpt><trkpt lat="43.79765335929666" lon="10.928466446780712"><ele>141.0</ele><time>2026-04-12T08:07:02.001Z</time></trkpt><trkpt lat="43.79773081006533" lon="10.928426466204854"><ele>141.0</ele><time>2026-04-12T08:07:05.001Z</time></trkpt><trkpt lat="43.797816666936306" lon="10.928408592535279"><ele>141.0</ele><time>2026-04-12T08:07:09.001Z</time></trkpt><trkpt lat="43.79789445737541" lon="10.92843738648056"><ele>141.0</ele><time>2026-04-12T08:07:12.001Z</time></trkpt><trkpt lat="43.79797074510669" lon="10.928487740106155"><ele>141.0</ele><time>2026-04-12T08:07:16.002Z</time></trkpt><trkpt lat="43.79802431074737" lon="10.928569823244937"><ele>139.42857142857144</ele><time>2026-04-12T08:07:19.002Z</time></trkpt><trkpt lat="43.798080101883244" lon="10.928634160122721"><ele>137.85714285714286</ele><time>2026-04-12T08:07:22.002Z</time></trkpt><trkpt lat="43.798130601846424" lon="10.928700602739594"><ele>136.28571428571428</ele><time>2026-04-12T08:07:25.002Z</time></trkpt><trkpt lat="43.798170170021315" lon="10.92877908496408"><ele>134.71428571428572</ele><time>2026-04-12T08:07:28.002Z</time></trkpt><trkpt lat="43.798206590937355" lon="10.92885749856564"><ele>133.14285714285714</ele><time>2026-04-12T08:07:31.002Z</time></trkpt><trkpt lat="43.79824684500443" lon="10.928935876514279"><ele>131.57142857142858</ele><time>2026-04-12T08:07:34.002Z</time></trkpt><trkpt lat="43.79828024508206" lon="10.929028996778102"><ele>130.0</ele><time>2026-04-12T08:07:37.002Z</time></trkpt><trkpt lat="43.79832543183306" lon="10.92911200676178"><ele>130.00000000000003</ele><time>2026-04-12T08:07:40.002Z</time></trkpt><trkpt lat="43.798363631550764" lon="10.929194434496319"><ele>130.0</ele><time>2026-04-12T08:07:43.002Z</time></trkpt><trkpt lat="43.798404258225155" lon="10.929269007584246"><ele>130.0</ele><time>2026-04-12T08:07:46.002Z</time></trkpt><trkpt lat="43.79843354888503" lon="10.929356532444816"><ele>130.0</ele><time>2026-04-12T08:07:49.002Z</time></trkpt><trkpt lat="43.798481751087024" lon="10.929432802781042"><ele>130.0</ele><time>2026-04-12T08:07:52.002Z</time></trkpt><trkpt lat="43.798519712518505" lon="10.92951843849859"><ele>130.00000000000003</ele><time>2026-04-12T08:07:55.002Z</time></trkpt><trkpt lat="43.79857588452467" lon="10.929586297220993"><ele>130.0</ele><time>2026-04-12T08:07:58.003Z</time></trkpt><trkpt lat="43.79861282246881" lon="10.92967420224645"><ele>129.85714285714286</ele><time>2026-04-12T08:08:01Z</time></trkpt><trkpt lat="43.79864378132242" lon="10.929759797804595"><ele>129.71428571428572</ele><time>2026-04-12T08:08:04Z</time></trkpt><trkpt lat="43.79867847712946" lon="10.929848991634833"><ele>129.57142857142856</ele><time>2026-04-12T08:08:07Z</time></trkpt><trkpt lat="43.79869534354135" lon="10.929942803235553"><ele>129.42857142857144</ele><time>2026-04-12T08:08:10Z</time></trkpt><trkpt lat="43.798716939595145" lon="10.930033793728937"><ele>129.28571428571428</ele><time>2026-04-12T08:08:13Z</time></trkpt><trkpt lat="43.79875314741734" lon="10.930138675603825"><ele>129.14285714285714</ele><time>2026-04-12T08:08:17Z</time></trkpt><trkpt lat="43.79878180396861" lon="10.930221265927239"><ele>129.0</ele><time>2026-04-12T08:08:20Z</time></trkpt><trkpt lat="43.798800798347564" lon="10.930319106409097"><ele>130.28571428571428</ele><time>2026-04-12T08:08:23Z</time></trkpt><trkpt lat="43.798825097331644" lon="10.930418325153664"><ele>131.57142857142856</ele><time>2026-04-12T08:08:26Z</time></trkpt><trkpt lat="43.79883223332801" lon="10.930526530541142"><ele>132.85714285714286</ele><time>2026-04-12T08:08:29Z</time></trkpt><trkpt lat="43.79884948721718" lon="10.930611326602547"><ele>134.14285714285714</ele><time>2026-04-12T08:08:32Z</time></trkpt><trkpt lat="43.7988775120121" lon="10.930711608033786"><ele>135.42857142857144</ele><time>2026-04-12T08:08:35Z</time></trkpt><trkpt lat="43.79889873805576" lon="10.930800032151865"><ele>136.71428571428572</ele><time>2026-04-12T08:08:38.001Z</time></trkpt><trkpt lat="43.79891968039229" lon="10.930893324666291"><ele>138.0</ele><time>2026-04-12T08:08:41.001Z</time></trkpt><trkpt lat="43.79892961241511" lon="10.93100134032445"><ele>139.85714285714286</ele><time>2026-04-12T08:08:44.001Z</time></trkpt><trkpt lat="43.79896423744582" lon="10.931098829253667"><ele>141.71428571428572</ele><time>2026-04-12T08:08:47.001Z</time></trkpt><trkpt lat="43.79899920074044" lon="10.931195851489576"><ele>143.57142857142858</ele><time>2026-04-12T08:08:50.001Z</time></trkpt><trkpt lat="43.79902654246224" lon="10.931277674677322"><ele>145.42857142857144</ele><time>2026-04-12T08:08:53.001Z</time></trkpt><trkpt lat="43.79905052545445" lon="10.931367548621763"><ele>147.28571428571428</ele><time>2026-04-12T08:08:56.001Z</time></trkpt><trkpt lat="43.7990818054165" lon="10.931457743797603"><ele>149.14285714285717</ele><time>2026-04-12T08:08:59.001Z</time></trkpt><trkpt lat="43.79912276405895" lon="10.931541876760098"><ele>151.0</ele><time>2026-04-12T08:09:02.001Z</time></trkpt><trkpt lat="43.79917794657532" lon="10.93162966476189"><ele>151.00000000000003</ele><time>2026-04-12T08:09:05.001Z</time></trkpt><trkpt lat="43.79924051822237" lon="10.93168952569486"><ele>151.0</ele><time>2026-04-12T08:09:08.001Z</time></trkpt><trkpt lat="43.799302281505106" lon="10.93176290374992"><ele>151.0</ele><time>2026-04-12T08:09:11.001Z</time></trkpt><trkpt lat="43.799358083581424" lon="10.931837276710167"><ele>151.0</ele><time>2026-04-12T08:09:14.001Z</time></trkpt><trkpt lat="43.79941528421816" lon="10.9319008894104"><ele>151.0</ele><time>2026-04-12T08:09:17.001Z</time></trkpt><trkpt lat="43.79946896413872" lon="10.931963539402139"><ele>151.00000000000003</ele><time>2026-04-12T08:09:20.001Z</time></trkpt><trkpt lat="43.799523915291424" lon="10.932017192843842"><ele>151.0</ele><time>2026-04-12T08:09:23.002Z</time></trkpt><trkpt lat="43.799585161815436" lon="10.932083209413719"><ele>151.0</ele><time>2026-04-12T08:09:26.002Z</time></trkpt><trkpt lat="43.799649264308364" lon="10.932131483447996"><ele>151.0</ele><time>2026-04-12T08:09:29.002Z</time></trkpt><trkpt lat="43.79971466869104" lon="10.932212026497945"><ele>151.0</ele><time>2026-04-12T08:09:33.002Z</time></trkpt><trkpt lat="43.79975853967587" lon="10.932299758966025"><ele>151.0</ele><time>2026-04-12T08:09:36.002Z</time></trkpt><trkpt lat="43.79978885496428" lon="10.932390709735573"><ele>151.0</ele><time>2026-04-12T08:09:39.002Z</time></trkpt><trkpt lat="43.79981276557693" lon="10.932481692205954"><ele>151.0</ele><time>2026-04-12T08:09:43.002Z</time></trkpt><trkpt lat="43.799828517685626" lon="10.932591151804528"><ele>151.00000000000003</ele><time>2026-04-12T08:09:47.002Z</time></trkpt><trkpt lat="43.79984452585695" lon="10.93268149195565"><ele>151.0</ele><time>2026-04-12T08:09:51.002Z</time></trkpt><trkpt lat="43.799845716831136" lon="10.93277109862192"><ele>151.0</ele><time>2026-04-12T08:09:54.002Z</time></trkpt><trkpt lat="43.799852656787564" lon="10.932878445099755"><ele>151.0</ele><time>2026-04-12T08:09:58.002Z</time></trkpt><trkpt lat="43.79985213463393" lon="10.93297836039229"><ele>151.0</ele><time>2026-04-12T08:10:01.002Z</time></trkpt><trkpt lat="43.79988657795917" lon="10.933087523409917"><ele>151.00000000000003</ele><time>2026-04-12T08:10:05Z</time></trkpt><trkpt lat="43.79989562415743" lon="10.933174314407374"><ele>151.0</ele><time>2026-04-12T08:10:08Z</time></trkpt><trkpt lat="43.799913375914905" lon="10.933278330516021"><ele>151.0</ele><time>2026-04-12T08:10:11Z</time></trkpt><trkpt lat="43.799958094031446" lon="10.933372999061143"><ele>151.0</ele><time>2026-04-12T08:10:14Z</time></trkpt><trkpt lat="43.800035909675216" lon="10.93345224637386"><ele>151.0</ele><time>2026-04-12T08:10:17Z</time></trkpt><trkpt lat="43.80012226585955" lon="10.933477559957632"><ele>151.0</ele><time>2026-04-12T08:10:20Z</time></trkpt><trkpt lat="43.800203344644665" lon="10.933449221414476"><ele>151.0</ele><time>2026-04-12T08:10:23Z</time></trkpt><trkpt lat="43.80026376490908" lon="10.933393553314694"><ele>151.0</ele><time>2026-04-12T08:10:26Z</time></trkpt><trkpt lat="43.80034084810534" lon="10.933349713816497"><ele>151.85714285714286</ele><time>2026-04-12T08:10:29Z</time></trkpt><trkpt lat="43.80037598479948" lon="10.933275128131207"><ele>152.71428571428572</ele><time>2026-04-12T08:10:31Z</time></trkpt><trkpt lat="43.80041477256789" lon="10.933168461402834"><ele>153.57142857142856</ele><time>2026-04-12T08:10:34Z</time></trkpt><trkpt lat="43.80044075741905" lon="10.933086057808497"><ele>154.42857142857144</ele><time>2026-04-12T08:10:37Z</time></trkpt><trkpt lat="43.800470875097766" lon="10.932967090650783"><ele>155.28571428571428</ele><time>2026-04-12T08:10:41.001Z</time></trkpt><trkpt lat="43.80048131182353" lon="10.932870055120071"><ele>156.14285714285714</ele><time>2026-04-12T08:10:45.001Z</time></trkpt><trkpt lat="43.80049430590519" lon="10.932775552816821"><ele>157.0</ele><time>2026-04-12T08:10:48.001Z</time></trkpt><trkpt lat="43.80050002517911" lon="10.932680211001697"><ele>157.0</ele><time>2026-04-12T08:10:52.001Z</time></trkpt><trkpt lat="43.800511128637915" lon="10.932584558706445"><ele>157.0</ele><time>2026-04-12T08:10:55.001Z</time></trkpt><trkpt lat="43.80052223143125" lon="10.932480845889707"><ele>157.0</ele><time>2026-04-12T08:10:59.001Z</time></trkpt><trkpt lat="43.80051066294914" lon="10.93237031204432"><ele>157.0</ele><time>2026-04-12T08:11:04.001Z</time></trkpt><trkpt lat="43.80051898566186" lon="10.932261361855392"><ele>157.0</ele><time>2026-04-12T08:11:08.001Z</time></trkpt><trkpt lat="43.800521417594986" lon="10.932154205622732"><ele>157.0</ele><time>2026-04-12T08:11:11.001Z</time></trkpt><trkpt lat="43.80051969479293" lon="10.932054465776398"><ele>157.33333333333334</ele><time>2026-04-12T08:11:14.001Z</time></trkpt><trkpt lat="43.80051983431756" lon="10.931938232116023"><ele>157.66666666666669</ele><time>2026-04-12T08:11:18.001Z</time></trkpt><trkpt lat="43.800513727724436" lon="10.931836290087057"><ele>158.0</ele><time>2026-04-12T08:11:21.001Z</time></trkpt><trkpt lat="43.80050672909846" lon="10.93173070615415"><ele>158.33333333333334</ele><time>2026-04-12T08:11:24.002Z</time></trkpt><trkpt lat="43.80048194576269" lon="10.931640507531965"><ele>158.66666666666666</ele><time>2026-04-12T08:11:27.002Z</time></trkpt><trkpt lat="43.80045089734499" lon="10.931549039504407"><ele>159.0</ele><time>2026-04-12T08:11:30.002Z</time></trkpt><trkpt lat="43.80040882112825" lon="10.931459677182133"><ele>159.14285714285714</ele><time>2026-04-12T08:11:33.002Z</time></trkpt><trkpt lat="43.800364285455835" lon="10.931391871547051"><ele>159.2857142857143</ele><time>2026-04-12T08:11:36.002Z</time></trkpt><trkpt lat="43.800303625971914" lon="10.931304584805797"><ele>159.42857142857144</ele><time>2026-04-12T08:11:40.002Z</time></trkpt><trkpt lat="43.80025753349096" lon="10.931232565733106"><ele>159.57142857142856</ele><time>2026-04-12T08:11:43.002Z</time></trkpt><trkpt lat="43.800208041599234" lon="10.931178089443314"><ele>159.71428571428572</ele><time>2026-04-12T08:11:46.002Z</time></trkpt><trkpt lat="43.80015544006483" lon="10.931090949289253"><ele>159.85714285714286</ele><time>2026-04-12T08:11:49.002Z</time></trkpt><trkpt lat="43.80012965425474" lon="10.93099357915658"><ele>160.0</ele><time>2026-04-12T08:11:52.002Z</time></trkpt><trkpt lat="43.80009416699258" lon="10.930886798284813"><ele>157.5</ele><time>2026-04-12T08:11:56.002Z</time></trkpt><trkpt lat="43.80008815011205" lon="10.93077436943554"><ele>155.0</ele><time>2026-04-12T08:12:00.002Z</time></trkpt><trkpt lat="43.80005835034574" lon="10.930660383669219"><ele>152.5</ele><time>2026-04-12T08:12:04.002Z</time></trkpt><trkpt lat="43.800042092993266" lon="10.930559077904258"><ele>150.0</ele><time>2026-04-12T08:12:08.002Z</time></trkpt><trkpt lat="43.80002215785204" lon="10.930451739444878"><ele>147.5</ele><time>2026-04-12T08:12:12Z</time></trkpt><trkpt lat="43.800003874237774" lon="10.930342480400585"><ele>145.0</ele><time>2026-04-12T08:12:16Z</time></trkpt><trkpt lat="43.799995758360545" lon="10.9302313132674"><ele>145.0</ele><time>2026-04-12T08:12:20Z</time></trkpt><trkpt lat="43.80000246309559" lon="10.930129255239699"><ele>145.0</ele><time>2026-04-12T08:12:24Z</time></trkpt><trkpt lat="43.800032404810565" lon="10.930026171843267"><ele>145.0</ele><time>2026-04-12T08:12:28Z</time></trkpt><trkpt lat="43.800082859361005" lon="10.929943151919355"><ele>145.0</ele><time>2026-04-12T08:12:32Z</time></trkpt><trkpt lat="43.80015118622682" lon="10.929911860418473"><ele>145.0</ele><time>2026-04-12T08:12:37Z</time></trkpt><trkpt lat="43.800220792075976" lon="10.929970911254907"><ele>145.0</ele><time>2026-04-12T08:12:41Z</time></trkpt><trkpt lat="43.800291623614996" lon="10.930027409033626"><ele>146.57142857142858</ele><time>2026-04-12T08:12:46Z</time></trkpt><trkpt lat="43.8003656133347" lon="10.930062760731138"><ele>148.14285714285717</ele><time>2026-04-12T08:12:50.001Z</time></trkpt><trkpt lat="43.800417936380164" lon="10.930126270083312"><ele>149.71428571428572</ele><time>2026-04-12T08:12:54.001Z</time></trkpt><trkpt lat="43.800477029863295" lon="10.930198017376359"><ele>151.28571428571428</ele><time>2026-04-12T08:12:58.001Z</time></trkpt><trkpt lat="43.80052416443435" lon="10.930266228362386"><ele>152.85714285714283</ele><time>2026-04-12T08:13:01.001Z</time></trkpt><trkpt lat="43.80057686989794" lon="10.93032012373369"><ele>154.42857142857144</ele><time>2026-04-12T08:13:04.001Z</time></trkpt><trkpt lat="43.800633261971996" lon="10.930409991616399"><ele>156.0</ele><time>2026-04-12T08:13:08.001Z</time></trkpt><trkpt lat="43.800666276598676" lon="10.930507293789407"><ele>156.0</ele><time>2026-04-12T08:13:12.001Z</time></trkpt><trkpt lat="43.8007136244377" lon="10.9305970128375"><ele>156.0</ele><time>2026-04-12T08:13:16.001Z</time></trkpt><trkpt lat="43.8007631327245" lon="10.930693464354208"><ele>156.0</ele><time>2026-04-12T08:13:20.001Z</time></trkpt><trkpt lat="43.80081662975681" lon="10.93078847683374"><ele>156.0</ele><time>2026-04-12T08:13:24.001Z</time></trkpt><trkpt lat="43.800866018930336" lon="10.930849778975421"><ele>156.0</ele><time>2026-04-12T08:13:27.001Z</time></trkpt><trkpt lat="43.8009402269844" lon="10.930902070377687"><ele>156.0</ele><time>2026-04-12T08:13:31.001Z</time></trkpt><trkpt lat="43.80101363620447" lon="10.930946836703681"><ele>157.0</ele><time>2026-04-12T08:13:34.002Z</time></trkpt><trkpt lat="43.80108489352763" lon="10.930999241561013"><ele>158.0</ele><time>2026-04-12T08:13:37.002Z</time></trkpt><trkpt lat="43.80118017167381" lon="10.931010811831268"><ele>159.0</ele><time>2026-04-12T08:13:41.002Z</time></trkpt><trkpt lat="43.80124167976277" lon="10.930975714183125"><ele>160.0</ele><time>2026-04-12T08:13:44.002Z</time></trkpt><trkpt lat="43.80129969181429" lon="10.93092355795921"><ele>161.0</ele><time>2026-04-12T08:13:47.002Z</time></trkpt><trkpt lat="43.80135816389054" lon="10.930844909178395"><ele>162.0</ele><time>2026-04-12T08:13:50.002Z</time></trkpt><trkpt lat="43.801413743407416" lon="10.930764078323019"><ele>162.0</ele><time>2026-04-12T08:13:53.002Z</time></trkpt><trkpt lat="43.80142898342051" lon="10.930663320453718"><ele>162.0</ele><time>2026-04-12T08:13:56.002Z</time></trkpt><trkpt lat="43.80146529533184" lon="10.930541630230627"><ele>162.0</ele><time>2026-04-12T08:14:00.002Z</time></trkpt><trkpt lat="43.80147779778501" lon="10.93041982761304"><ele>162.0</ele><time>2026-04-12T08:14:04.002Z</time></trkpt><trkpt lat="43.80147310599141" lon="10.930326277842154"><ele>162.0</ele><time>2026-04-12T08:14:07.002Z</time></trkpt><trkpt lat="43.801479805977976" lon="10.930234271474829"><ele>162.0</ele><time>2026-04-12T08:14:10.002Z</time></trkpt><trkpt lat="43.80148415251316" lon="10.930123691716332"><ele>161.83333333333334</ele><time>2026-04-12T08:14:14.002Z</time></trkpt><trkpt lat="43.80148590050192" lon="10.930013126252417"><ele>161.66666666666666</ele><time>2026-04-12T08:14:18Z</time></trkpt><trkpt lat="43.80148320829658" lon="10.929892604848064"><ele>161.5</ele><time>2026-04-12T08:14:22Z</time></trkpt><trkpt lat="43.80147388375311" lon="10.92980554280941"><ele>161.33333333333331</ele><time>2026-04-12T08:14:25Z</time></trkpt><trkpt lat="43.80146982909592" lon="10.929710053232121"><ele>161.16666666666666</ele><time>2026-04-12T08:14:28Z</time></trkpt><trkpt lat="43.80147391404522" lon="10.929616927400668"><ele>161.0</ele><time>2026-04-12T08:14:31Z</time></trkpt><trkpt lat="43.8014726437784" lon="10.929500797377303"><ele>161.0</ele><time>2026-04-12T08:14:35Z</time></trkpt><trkpt lat="43.80146686729527" lon="10.92940169569166"><ele>161.0</ele><time>2026-04-12T08:14:39Z</time></trkpt><trkpt lat="43.80147460741904" lon="10.929300730693738"><ele>161.0</ele><time>2026-04-12T08:14:42Z</time></trkpt><trkpt lat="43.8014762000447" lon="10.929186229476043"><ele>161.0</ele><time>2026-04-12T08:14:46Z</time></trkpt><trkpt lat="43.80145138885406" lon="10.929105408918838"><ele>161.0</ele><time>2026-04-12T08:14:49Z</time></trkpt><trkpt lat="43.80143639588074" lon="10.928992198286911"><ele>161.0</ele><time>2026-04-12T08:14:53.001Z</time></trkpt><trkpt lat="43.80143462963919" lon="10.928880971516937"><ele>161.66666666666666</ele><time>2026-04-12T08:14:57.001Z</time></trkpt><trkpt lat="43.80141392088988" lon="10.928784996353544"><ele>162.33333333333331</ele><time>2026-04-12T08:15:01.001Z</time></trkpt><trkpt lat="43.801413892917964" lon="10.928686939819572"><ele>163.0</ele><time>2026-04-12T08:15:05.001Z</time></trkpt><trkpt lat="43.80141608164598" lon="10.92857053994848"><ele>163.66666666666666</ele><time>2026-04-12T08:15:09.001Z</time></trkpt><trkpt lat="43.80146187318265" lon="10.928487642234288"><ele>164.33333333333334</ele><time>2026-04-12T08:15:13.001Z</time></trkpt><trkpt lat="43.80150190928392" lon="10.928389413901565"><ele>165.0</ele><time>2026-04-12T08:15:17.001Z</time></trkpt><trkpt lat="43.801564831121496" lon="10.928297206570052"><ele>165.00000000000003</ele><time>2026-04-12T08:15:22.001Z</time></trkpt><trkpt lat="43.80162915039594" lon="10.928257699864313"><ele>165.0</ele><time>2026-04-12T08:15:26.001Z</time></trkpt><trkpt lat="43.801691081937534" lon="10.928234621982503"><ele>165.0</ele><time>2026-04-12T08:15:30.001Z</time></trkpt><trkpt lat="43.8017527840759" lon="10.928210737551888"><ele>165.0</ele><time>2026-04-12T08:15:33.001Z</time></trkpt><trkpt lat="43.80182340750395" lon="10.928209759976616"><ele>165.0</ele><time>2026-04-12T08:15:38.001Z</time></trkpt><trkpt lat="43.80189720415519" lon="10.928200768237321"><ele>165.00000000000003</ele><time>2026-04-12T08:15:42.002Z</time></trkpt><trkpt lat="43.801972672324375" lon="10.928209809563016"><ele>165.0</ele><time>2026-04-12T08:15:46.002Z</time></trkpt><trkpt lat="43.80205322937433" lon="10.928204443727967"><ele>165.57142857142858</ele><time>2026-04-12T08:15:50.002Z</time></trkpt><trkpt lat="43.8021179376047" lon="10.928233937627612"><ele>166.14285714285714</ele><time>2026-04-12T08:15:54.002Z</time></trkpt><trkpt lat="43.80218361527393" lon="10.92825596136996"><ele>166.71428571428572</ele><time>2026-04-12T08:15:57.002Z</time></trkpt><trkpt lat="43.80224506206246" lon="10.928280661133948"><ele>167.28571428571428</ele><time>2026-04-12T08:16:01.002Z</time></trkpt><trkpt lat="43.802331125537044" lon="10.928310341428775"><ele>167.85714285714286</ele><time>2026-04-12T08:16:05.002Z</time></trkpt><trkpt lat="43.802400006167694" lon="10.928327528738183"><ele>168.42857142857144</ele><time>2026-04-12T08:16:09.002Z</time></trkpt><trkpt lat="43.80245816479121" lon="10.928365758902002"><ele>169.0</ele><time>2026-04-12T08:16:12.002Z</time></trkpt><trkpt lat="43.80252456356361" lon="10.928367002007924"><ele>169.0</ele><time>2026-04-12T08:16:15.002Z</time></trkpt><trkpt lat="43.802603650791575" lon="10.928391114538464"><ele>169.0</ele><time>2026-04-12T08:16:19.002Z</time></trkpt><trkpt lat="43.802675649928155" lon="10.928425929559127"><ele>169.0</ele><time>2026-04-12T08:16:23Z</time></trkpt><trkpt lat="43.802731391237984" lon="10.928469599074036"><ele>169.0</ele><time>2026-04-12T08:16:26Z</time></trkpt><trkpt lat="43.80279633307606" lon="10.928499545749744"><ele>169.0</ele><time>2026-04-12T08:16:29Z</time></trkpt><trkpt lat="43.80286208440465" lon="10.928533057277535"><ele>169.0</ele><time>2026-04-12T08:16:32Z</time></trkpt><trkpt lat="43.802937542846585" lon="10.928583079962683"><ele>169.0</ele><time>2026-04-12T08:16:36Z</time></trkpt><trkpt lat="43.80302203381207" lon="10.928616284003324"><ele>170.42857142857144</ele><time>2026-04-12T08:16:40Z</time></trkpt><trkpt lat="43.80309260064269" lon="10.928640991757335"><ele>171.85714285714286</ele><time>2026-04-12T08:16:44Z</time></trkpt><trkpt lat="43.803171305453475" lon="10.928662590743048"><ele>173.28571428571428</ele><time>2026-04-12T08:16:47Z</time></trkpt><trkpt lat="43.80323773706306" lon="10.928704511665591"><ele>174.71428571428572</ele><time>2026-04-12T08:16:51Z</time></trkpt><trkpt lat="43.80330330306031" lon="10.92873104001544"><ele>176.14285714285714</ele><time>2026-04-12T08:16:54Z</time></trkpt><trkpt lat="43.80337764141227" lon="10.928759225524095"><ele>177.57142857142858</ele><time>2026-04-12T08:16:57Z</time></trkpt><trkpt lat="43.80343267668425" lon="10.928813858022536"><ele>179.0</ele><time>2026-04-12T08:17:01Z</time></trkpt><trkpt lat="43.803486004282426" lon="10.928866082943122"><ele>178.2857142857143</ele><time>2026-04-12T08:17:04.001Z</time></trkpt><trkpt lat="43.803529724685305" lon="10.9289349299048"><ele>177.57142857142858</ele><time>2026-04-12T08:17:08.001Z</time></trkpt><trkpt lat="43.80356813084222" lon="10.929027997588964"><ele>176.85714285714286</ele><time>2026-04-12T08:17:12.001Z</time></trkpt><trkpt lat="43.80361063154372" lon="10.92913076930254"><ele>176.14285714285717</ele><time>2026-04-12T08:17:16.001Z</time></trkpt><trkpt lat="43.80361033277451" lon="10.929225121835303"><ele>175.42857142857144</ele><time>2026-04-12T08:17:19.001Z</time></trkpt><trkpt lat="43.80363288154015" lon="10.929311543176542"><ele>174.71428571428572</ele><time>2026-04-12T08:17:23.001Z</time></trkpt><trkpt lat="43.80363861467834" lon="10.929424694858549"><ele>174.0</ele><time>2026-04-12T08:17:26.001Z</time></trkpt><trkpt lat="43.8036577979751" lon="10.929528692315195"><ele>174.0</ele><time>2026-04-12T08:17:31.001Z</time></trkpt><trkpt lat="43.8036685778384" lon="10.929619230159222"><ele>174.0</ele><time>2026-04-12T08:17:34.001Z</time></trkpt><trkpt lat="43.803697628186875" lon="10.929707287266924"><ele>174.0</ele><time>2026-04-12T08:17:37.001Z</time></trkpt><trkpt lat="43.803735893334796" lon="10.929781787540199"><ele>174.0</ele><time>2026-04-12T08:17:40.001Z</time></trkpt><trkpt lat="43.80377328365606" lon="10.929856404372563"><ele>174.0</ele><time>2026-04-12T08:17:43.001Z</time></trkpt><trkpt lat="43.80380768204396" lon="10.929932209105173"><ele>174.0</ele><time>2026-04-12T08:17:46.001Z</time></trkpt><trkpt lat="43.803852985562166" lon="10.930020278131199"><ele>174.0</ele><time>2026-04-12T08:17:50.002Z</time></trkpt><trkpt lat="43.80390295892137" lon="10.930116860685494"><ele>176.71428571428572</ele><time>2026-04-12T08:17:54.002Z</time></trkpt><trkpt lat="43.80395169189421" lon="10.930177737284817"><ele>179.42857142857144</ele><time>2026-04-12T08:17:57.002Z</time></trkpt><trkpt lat="43.803990303414444" lon="10.930262488478055"><ele>182.14285714285717</ele><time>2026-04-12T08:18:01.002Z</time></trkpt><trkpt lat="43.804037482606766" lon="10.93032029328498"><ele>184.85714285714286</ele><time>2026-04-12T08:18:03.002Z</time></trkpt><trkpt lat="43.804089022597225" lon="10.9303822464895"><ele>187.57142857142858</ele><time>2026-04-12T08:18:06.002Z</time></trkpt><trkpt lat="43.804151379330555" lon="10.930458627556037"><ele>190.2857142857143</ele><time>2026-04-12T08:18:10.002Z</time></trkpt><trkpt lat="43.8042023618168" lon="10.930513313943603"><ele>193.0</ele><time>2026-04-12T08:18:13.002Z</time></trkpt><trkpt lat="43.804247692031296" lon="10.93057565317513"><ele>193.00000000000003</ele><time>2026-04-12T08:18:16.002Z</time></trkpt><trkpt lat="43.80430962644231" lon="10.930624584230216"><ele>193.0</ele><time>2026-04-12T08:18:19.002Z</time></trkpt><trkpt lat="43.80436739442439" lon="10.930667762969636"><ele>193.0</ele><time>2026-04-12T08:18:22.002Z</time></trkpt><trkpt lat="43.80442387952586" lon="10.930711457541692"><ele>193.0</ele><time>2026-04-12T08:18:25.002Z</time></trkpt><trkpt lat="43.80450079275992" lon="10.930763435321905"><ele>193.0</ele><time>2026-04-12T08:18:29Z</time></trkpt><trkpt lat="43.804563291144376" lon="10.93080879331564"><ele>193.00000000000003</ele><time>2026-04-12T08:18:32Z</time></trkpt><trkpt lat="43.804639375459395" lon="10.930868463806949"><ele>193.0</ele><time>2026-04-12T08:18:36Z</time></trkpt><trkpt lat="43.80470064903388" lon="10.93090970721013"><ele>195.66666666666666</ele><time>2026-04-12T08:18:39Z</time></trkpt><trkpt lat="43.804772092399936" lon="10.93093863105428"><ele>198.33333333333331</ele><time>2026-04-12T08:18:42Z</time></trkpt><trkpt lat="43.80484926443133" lon="10.931002395778417"><ele>201.0</ele><time>2026-04-12T08:18:46Z</time></trkpt><trkpt lat="43.80491397366428" lon="10.931050667964533"><ele>203.66666666666669</ele><time>2026-04-12T08:18:50Z</time></trkpt><trkpt lat="43.80499593453734" lon="10.931092426403936"><ele>206.33333333333334</ele><time>2026-04-12T08:18:53Z</time></trkpt><trkpt lat="43.805068879285635" lon="10.931103072094766"><ele>209.0</ele><time>2026-04-12T08:18:57Z</time></trkpt><trkpt lat="43.80515278086056" lon="10.931116918894055"><ele>208.0</ele><time>2026-04-12T08:19:01Z</time></trkpt><trkpt lat="43.80523412713283" lon="10.931125926581176"><ele>207.0</ele><time>2026-04-12T08:19:05Z</time></trkpt><trkpt lat="43.805297307287326" lon="10.931103190358993"><ele>206.0</ele><time>2026-04-12T08:19:08Z</time></trkpt><trkpt lat="43.8053754880598" lon="10.931116699570909"><ele>205.0</ele><time>2026-04-12T08:19:12Z</time></trkpt><trkpt lat="43.80545377230034" lon="10.931096860253724"><ele>204.0</ele><time>2026-04-12T08:19:16.001Z</time></trkpt><trkpt lat="43.80551598647166" lon="10.931126397006464"><ele>203.0</ele><time>2026-04-12T08:19:19.001Z</time></trkpt><trkpt lat="43.80559071859652" lon="10.931159217359209"><ele>202.0</ele><time>2026-04-12T08:19:23.001Z</time></trkpt><trkpt lat="43.805656049399374" lon="10.93117140404164"><ele>201.99999999999997</ele><time>2026-04-12T08:19:26.001Z</time></trkpt><trkpt lat="43.8057331518007" lon="10.931214186900368"><ele>202.0</ele><time>2026-04-12T08:19:30.001Z</time></trkpt><trkpt lat="43.805804083154406" lon="10.931250304563372"><ele>202.0</ele><time>2026-04-12T08:19:34.001Z</time></trkpt><trkpt lat="43.80588199915812" lon="10.931319779836304"><ele>202.0</ele><time>2026-04-12T08:19:38.001Z</time></trkpt><trkpt lat="43.80595069006363" lon="10.931383143910306"><ele>201.99999999999997</ele><time>2026-04-12T08:19:43.001Z</time></trkpt><trkpt lat="43.80598237712793" lon="10.931488531735724"><ele>202.0</ele><time>2026-04-12T08:19:47.001Z</time></trkpt><trkpt lat="43.806020849862335" lon="10.931566657098767"><ele>202.83333333333331</ele><time>2026-04-12T08:19:51.001Z</time></trkpt><trkpt lat="43.80604731980725" lon="10.931653551077341"><ele>203.66666666666666</ele><time>2026-04-12T08:19:54.001Z</time></trkpt><trkpt lat="43.80609036079414" lon="10.931748226267857"><ele>204.5</ele><time>2026-04-12T08:19:58.001Z</time></trkpt><trkpt lat="43.806138688073645" lon="10.931827086883619"><ele>205.33333333333331</ele><time>2026-04-12T08:20:02.002Z</time></trkpt><trkpt lat="43.80619300536101" lon="10.931903140608185"><ele>206.16666666666666</ele><time>2026-04-12T08:20:06.002Z</time></trkpt><trkpt lat="43.806264750347104" lon="10.931958559666109"><ele>207.0</ele><time>2026-04-12T08:20:09.002Z</time></trkpt><trkpt lat="43.80632540322843" lon="10.932020637744749"><ele>207.00000000000003</ele><time>2026-04-12T08:20:12.002Z</time></trkpt><trkpt lat="43.80638665582504" lon="10.93206126589432"><ele>207.0</ele><time>2026-04-12T08:20:15.002Z</time></trkpt><trkpt lat="43.80644936418484" lon="10.932102971333528"><ele>207.0</ele><time>2026-04-12T08:20:18.002Z</time></trkpt><trkpt lat="43.80650988214228" lon="10.932143708431077"><ele>207.0</ele><time>2026-04-12T08:20:21.002Z</time></trkpt><trkpt lat="43.80658573223986" lon="10.9321667598924"><ele>207.0</ele><time>2026-04-12T08:20:24.002Z</time></trkpt><trkpt lat="43.8066673820385" lon="10.932128410346515"><ele>207.00000000000003</ele><time>2026-04-12T08:20:27.002Z</time></trkpt><trkpt lat="43.80671629194149" lon="10.932059094141641"><ele>207.0</ele><time>2026-04-12T08:20:30.002Z</time></trkpt><trkpt lat="43.80678355826163" lon="10.931991175153344"><ele>206.16666666666666</ele><time>2026-04-12T08:20:33.002Z</time></trkpt><trkpt lat="43.80683334021102" lon="10.931894518313323"><ele>205.33333333333331</ele><time>2026-04-12T08:20:36Z</time></trkpt><trkpt lat="43.80686995457073" lon="10.931790236803574"><ele>204.5</ele><time>2026-04-12T08:20:39Z</time></trkpt><trkpt lat="43.80687406473996" lon="10.93168589589212"><ele>203.66666666666666</ele><time>2026-04-12T08:20:42Z</time></trkpt><trkpt lat="43.80685482900905" lon="10.93158578574932"><ele>202.83333333333331</ele><time>2026-04-12T08:20:45Z</time></trkpt><trkpt lat="43.80685530582955" lon="10.931477903747595"><ele>202.0</ele><time>2026-04-12T08:20:48Z</time></trkpt><trkpt lat="43.80684370268139" lon="10.931379813937301"><ele>200.33333333333331</ele><time>2026-04-12T08:20:51Z</time></trkpt><trkpt lat="43.806831469070595" lon="10.931264411221008"><ele>198.66666666666666</ele><time>2026-04-12T08:20:54Z</time></trkpt><trkpt lat="43.806820450491855" lon="10.931169943413904"><ele>197.0</ele><time>2026-04-12T08:20:57Z</time></trkpt><trkpt lat="43.80679930004838" lon="10.931077387045285"><ele>195.33333333333331</ele><time>2026-04-12T08:21:00Z</time></trkpt><trkpt lat="43.80678444161263" lon="10.930963921974287"><ele>193.66666666666666</ele><time>2026-04-12T08:21:04Z</time></trkpt><trkpt lat="43.806762557149206" lon="10.930835181376722"><ele>192.0</ele><time>2026-04-12T08:21:08Z</time></trkpt><trkpt lat="43.80673363659437" lon="10.930738027051985"><ele>192.0</ele><time>2026-04-12T08:21:12Z</time></trkpt><trkpt lat="43.80673225440907" lon="10.930627111415973"><ele>192.0</ele><time>2026-04-12T08:21:15Z</time></trkpt><trkpt lat="43.80669697555036" lon="10.930519148284528"><ele>192.0</ele><time>2026-04-12T08:21:19.001Z</time></trkpt><trkpt lat="43.806686754669634" lon="10.930415834325125"><ele>192.0</ele><time>2026-04-12T08:21:22.001Z</time></trkpt><trkpt lat="43.80666012988768" lon="10.930325405213287"><ele>192.0</ele><time>2026-04-12T08:21:26.001Z</time></trkpt><trkpt lat="43.80663517325475" lon="10.930227777241296"><ele>192.0</ele><time>2026-04-12T08:21:29.001Z</time></trkpt><trkpt lat="43.806598381512636" lon="10.930136064484886"><ele>194.28571428571428</ele><time>2026-04-12T08:21:33.001Z</time></trkpt><trkpt lat="43.80655053454409" lon="10.93005601149971"><ele>196.57142857142856</ele><time>2026-04-12T08:21:36.001Z</time></trkpt><trkpt lat="43.80650737274268" lon="10.929976043532415"><ele>198.85714285714283</ele><time>2026-04-12T08:21:39.001Z</time></trkpt><trkpt lat="43.806469069728976" lon="10.929905139685266"><ele>201.14285714285714</ele><time>2026-04-12T08:21:42.001Z</time></trkpt><trkpt lat="43.80642339156577" lon="10.92982269553211"><ele>203.42857142857144</ele><time>2026-04-12T08:21:46.001Z</time></trkpt><trkpt lat="43.80639377762765" lon="10.929729718305124"><ele>205.7142857142857</ele><time>2026-04-12T08:21:50.001Z</time></trkpt><trkpt lat="43.80635814154289" lon="10.929650053821383"><ele>208.0</ele><time>2026-04-12T08:21:53.001Z</time></trkpt><trkpt lat="43.80631460306749" lon="10.929541179215219"><ele>208.0</ele><time>2026-04-12T08:21:57.001Z</time></trkpt><trkpt lat="43.806253475834176" lon="10.929461627490879"><ele>208.0</ele><time>2026-04-12T08:22:01.002Z</time></trkpt><trkpt lat="43.80621755720237" lon="10.929379698366585"><ele>208.0</ele><time>2026-04-12T08:22:05.002Z</time></trkpt><trkpt lat="43.80617890377616" lon="10.929307856380246"><ele>208.0</ele><time>2026-04-12T08:22:08.002Z</time></trkpt><trkpt lat="43.80612009850063" lon="10.929228547212851"><ele>208.0</ele><time>2026-04-12T08:22:12.002Z</time></trkpt><trkpt lat="43.80607632665097" lon="10.929140292303124"><ele>208.0</ele><time>2026-04-12T08:22:16.002Z</time></trkpt><trkpt lat="43.806037351888364" lon="10.929058219562075"><ele>208.0</ele><time>2026-04-12T08:22:19.002Z</time></trkpt><trkpt lat="43.806008726313486" lon="10.928958080558772"><ele>208.28571428571428</ele><time>2026-04-12T08:22:23.002Z</time></trkpt><trkpt lat="43.80601074383466" lon="10.928867107504143"><ele>208.57142857142858</ele><time>2026-04-12T08:22:27.002Z</time></trkpt><trkpt lat="43.806029863477285" lon="10.928763737370854"><ele>208.85714285714286</ele><time>2026-04-12T08:22:31.002Z</time></trkpt><trkpt lat="43.80605458158743" lon="10.928681460805677"><ele>209.14285714285714</ele><time>2026-04-12T08:22:35.002Z</time></trkpt><trkpt lat="43.80608832444653" lon="10.928605993812562"><ele>209.42857142857144</ele><time>2026-04-12T08:22:38.002Z</time></trkpt><trkpt lat="43.80613963858101" lon="10.92851275256555"><ele>209.71428571428572</ele><time>2026-04-12T08:22:42Z</time></trkpt><trkpt lat="43.80618503831477" lon="10.928427671141181"><ele>210.0</ele><time>2026-04-12T08:22:47Z</time></trkpt><trkpt lat="43.80622990848998" lon="10.92832597030957"><ele>210.0</ele><time>2026-04-12T08:22:51Z</time></trkpt><trkpt lat="43.806270788876354" lon="10.92823436160603"><ele>210.0</ele><time>2026-04-12T08:22:55Z</time></trkpt><trkpt lat="43.806345496015425" lon="10.928193640118154"><ele>210.0</ele><time>2026-04-12T08:23:00Z</time></trkpt><trkpt lat="43.80641246960501" lon="10.92822456423108"><ele>210.0</ele><time>2026-04-12T08:23:04Z</time></trkpt><trkpt lat="43.80647170276908" lon="10.928268977989331"><ele>210.0</ele><time>2026-04-12T08:23:08Z</time></trkpt><trkpt lat="43.8065018492893" lon="10.928370840549192"><ele>210.0</ele><time>2026-04-12T08:23:13Z</time></trkpt><trkpt lat="43.80653109636333" lon="10.928452680248629"><ele>210.0</ele><time>2026-04-12T08:23:17Z</time></trkpt><trkpt lat="43.806550552745975" lon="10.928569415334232"><ele>210.0</ele><time>2026-04-12T08:23:21.001Z</time></trkpt><trkpt lat="43.80657241272118" lon="10.92866552866681"><ele>210.0</ele><time>2026-04-12T08:23:25.001Z</time></trkpt><trkpt lat="43.80660368038076" lon="10.928772117022794"><ele>210.0</ele><time>2026-04-12T08:23:29.001Z</time></trkpt><trkpt lat="43.806640913443125" lon="10.928877295515866"><ele>210.0</ele><time>2026-04-12T08:23:33.001Z</time></trkpt><trkpt lat="43.80667415367481" lon="10.9289566168921"><ele>210.0</ele><time>2026-04-12T08:23:37.001Z</time></trkpt><trkpt lat="43.80670738143298" lon="10.929059971623554"><ele>210.0</ele><time>2026-04-12T08:23:41.001Z</time></trkpt><trkpt lat="43.80673340977078" lon="10.92915249139896"><ele>209.71428571428572</ele><time>2026-04-12T08:23:45.001Z</time></trkpt><trkpt lat="43.80675792819783" lon="10.929237720076731"><ele>209.42857142857144</ele><time>2026-04-12T08:23:48.001Z</time></trkpt><trkpt lat="43.80679794138501" lon="10.9293383938299"><ele>209.14285714285714</ele><time>2026-04-12T08:23:52.001Z</time></trkpt><trkpt lat="43.80681747882695" lon="10.929431445356373"><ele>208.85714285714286</ele><time>2026-04-12T08:23:55.001Z</time></trkpt><trkpt lat="43.80685935163754" lon="10.929530692012005"><ele>208.57142857142858</ele><time>2026-04-12T08:23:59.001Z</time></trkpt><trkpt lat="43.80690948964673" lon="10.92959887913977"><ele>208.28571428571428</ele><time>2026-04-12T08:24:02.001Z</time></trkpt><trkpt lat="43.80695815095733" lon="10.929677212872775"><ele>208.0</ele><time>2026-04-12T08:24:05.002Z</time></trkpt><trkpt lat="43.80702061131934" lon="10.929766821844822"><ele>209.66666666666666</ele><time>2026-04-12T08:24:09.002Z</time></trkpt><trkpt lat="43.80707677133993" lon="10.929847586904172"><ele>211.33333333333331</ele><time>2026-04-12T08:24:13.002Z</time></trkpt><trkpt lat="43.80712017711814" lon="10.929929746464095"><ele>213.0</ele><time>2026-04-12T08:24:16.002Z</time></trkpt><trkpt lat="43.807168804385945" lon="10.929994497333155"><ele>214.66666666666669</ele><time>2026-04-12T08:24:19.002Z</time></trkpt><trkpt lat="43.80721963751273" lon="10.930048107333064"><ele>216.33333333333334</ele><time>2026-04-12T08:24:22.002Z</time></trkpt><trkpt lat="43.80728961743871" lon="10.930100917102399"><ele>218.0</ele><time>2026-04-12T08:24:25.002Z</time></trkpt><trkpt lat="43.80737725268849" lon="10.930144052982099"><ele>218.42857142857144</ele><time>2026-04-12T08:24:30.002Z</time></trkpt><trkpt lat="43.807444697943616" lon="10.93015140385016"><ele>218.85714285714286</ele><time>2026-04-12T08:24:34.002Z</time></trkpt><trkpt lat="43.80752240037365" lon="10.930160324958011"><ele>219.28571428571428</ele><time>2026-04-12T08:24:38.002Z</time></trkpt><trkpt lat="43.80759360001714" lon="10.930183678503385"><ele>219.71428571428572</ele><time>2026-04-12T08:24:42.002Z</time></trkpt><trkpt lat="43.80766661548942" lon="10.930207120349532"><ele>220.14285714285714</ele><time>2026-04-12T08:24:45.002Z</time></trkpt><trkpt lat="43.807736294424515" lon="10.93024829341528"><ele>220.57142857142858</ele><time>2026-04-12T08:24:48Z</time></trkpt><trkpt lat="43.80780712618722" lon="10.93026176593974"><ele>221.0</ele><time>2026-04-12T08:24:51Z</time></trkpt><trkpt lat="43.80788339701363" lon="10.930320731362832"><ele>222.42857142857144</ele><time>2026-04-12T08:24:55Z</time></trkpt><trkpt lat="43.80794232087658" lon="10.930353292730313"><ele>223.85714285714286</ele><time>2026-04-12T08:24:58Z</time></trkpt><trkpt lat="43.80799719296" lon="10.930399849582058"><ele>225.28571428571428</ele><time>2026-04-12T08:25:01Z</time></trkpt><trkpt lat="43.80804856021359" lon="10.930461936463976"><ele>226.71428571428572</ele><time>2026-04-12T08:25:04Z</time></trkpt><trkpt lat="43.80810712534621" lon="10.930503991223114"><ele>228.14285714285714</ele><time>2026-04-12T08:25:07Z</time></trkpt><trkpt lat="43.80816904447565" lon="10.930543038644984"><ele>229.57142857142858</ele><time>2026-04-12T08:25:10Z</time></trkpt><trkpt lat="43.80823455655138" lon="10.93055763345224"><ele>231.0</ele><time>2026-04-12T08:25:13Z</time></trkpt><trkpt lat="43.80829541826479" lon="10.930585487240078"><ele>231.0</ele><time>2026-04-12T08:25:16Z</time></trkpt><trkpt lat="43.808362975600225" lon="10.930583796997137"><ele>231.0</ele><time>2026-04-12T08:25:19Z</time></trkpt><trkpt lat="43.8084312073515" lon="10.930604161789498"><ele>231.0</ele><time>2026-04-12T08:25:22Z</time></trkpt><trkpt lat="43.80851502657197" lon="10.930616028856607"><ele>231.0</ele><time>2026-04-12T08:25:26.001Z</time></trkpt><trkpt lat="43.80859422852812" lon="10.930621852922803"><ele>231.0</ele><time>2026-04-12T08:25:30.001Z</time></trkpt><trkpt lat="43.808660051912156" lon="10.930625803865915"><ele>231.0</ele><time>2026-04-12T08:25:33.001Z</time></trkpt><trkpt lat="43.80872984456188" lon="10.9306191142326"><ele>231.0</ele><time>2026-04-12T08:25:36.001Z</time></trkpt><trkpt lat="43.80879310275334" lon="10.930589487493956"><ele>231.71428571428572</ele><time>2026-04-12T08:25:39.001Z</time></trkpt><trkpt lat="43.80884835393913" lon="10.930529570209146"><ele>232.42857142857144</ele><time>2026-04-12T08:25:42.001Z</time></trkpt><trkpt lat="43.80888573320425" lon="10.930430576641976"><ele>233.14285714285714</ele><time>2026-04-12T08:25:45.001Z</time></trkpt><trkpt lat="43.80889068569543" lon="10.930334566869407"><ele>233.85714285714286</ele><time>2026-04-12T08:25:48.001Z</time></trkpt><trkpt lat="43.808889134263005" lon="10.930241849379437"><ele>234.57142857142858</ele><time>2026-04-12T08:25:51.001Z</time></trkpt><trkpt lat="43.80885885564748" lon="10.930154981697896"><ele>235.28571428571428</ele><time>2026-04-12T08:25:54.001Z</time></trkpt><trkpt lat="43.808850124056235" lon="10.930064931081494"><ele>236.0</ele><time>2026-04-12T08:25:57.001Z</time></trkpt><trkpt lat="43.80882188111883" lon="10.929974492265668"><ele>236.71428571428572</ele><time>2026-04-12T08:26:00.001Z</time></trkpt><trkpt lat="43.80878393330178" lon="10.929879748604945"><ele>237.42857142857144</ele><time>2026-04-12T08:26:04.001Z</time></trkpt><trkpt lat="43.80875821944475" lon="10.929786131405194"><ele>238.14285714285717</ele><time>2026-04-12T08:26:07.001Z</time></trkpt><trkpt lat="43.8087178837757" lon="10.929705656482028"><ele>238.85714285714286</ele><time>2026-04-12T08:26:10.002Z</time></trkpt><trkpt lat="43.8086897180773" lon="10.929613149931324"><ele>239.5714285714286</ele><time>2026-04-12T08:26:13.002Z</time></trkpt><trkpt lat="43.808666144279826" lon="10.929506750277293"><ele>240.2857142857143</ele><time>2026-04-12T08:26:17.002Z</time></trkpt><trkpt lat="43.80863414778824" lon="10.929417878422583"><ele>241.0</ele><time>2026-04-12T08:26:20.002Z</time></trkpt><trkpt lat="43.8085868304893" lon="10.929317486176616"><ele>240.99999999999997</ele><time>2026-04-12T08:26:24.002Z</time></trkpt><trkpt lat="43.8085448034023" lon="10.929230182218204"><ele>241.0</ele><time>2026-04-12T08:26:28.002Z</time></trkpt><trkpt lat="43.80849799856928" lon="10.929140033528796"><ele>241.0</ele><time>2026-04-12T08:26:32.002Z</time></trkpt><trkpt lat="43.80847253794045" lon="10.929046014195908"><ele>241.0</ele><time>2026-04-12T08:26:35.002Z</time></trkpt><trkpt lat="43.808458284772" lon="10.928943079816095"><ele>240.99999999999997</ele><time>2026-04-12T08:26:38.002Z</time></trkpt><trkpt lat="43.80844049798071" lon="10.928837073166038"><ele>241.0</ele><time>2026-04-12T08:26:42.002Z</time></trkpt><trkpt lat="43.80844837013414" lon="10.928736013019105"><ele>241.42857142857144</ele><time>2026-04-12T08:26:46.002Z</time></trkpt><trkpt lat="43.808481541548524" lon="10.928649443153382"><ele>241.8571428571429</ele><time>2026-04-12T08:26:50.002Z</time></trkpt><trkpt lat="43.808530481506615" lon="10.928585332974926"><ele>242.28571428571428</ele><time>2026-04-12T08:26:54Z</time></trkpt><trkpt lat="43.8086066181459" lon="10.928595758606228"><ele>242.71428571428572</ele><time>2026-04-12T08:26:58Z</time></trkpt><trkpt lat="43.8086943288362" lon="10.928623953883209"><ele>243.14285714285714</ele><time>2026-04-12T08:27:02Z</time></trkpt><trkpt lat="43.80875935304282" lon="10.92862005131181"><ele>243.57142857142856</ele><time>2026-04-12T08:27:06Z</time></trkpt><trkpt lat="43.808830352087554" lon="10.92866001530187"><ele>243.99999999999997</ele><time>2026-04-12T08:27:09Z</time></trkpt><trkpt lat="43.80889269694743" lon="10.928685941854138"><ele>243.99999999999997</ele><time>2026-04-12T08:27:12Z</time></trkpt><trkpt lat="43.80896661181114" lon="10.928710135312157"><ele>244.0</ele><time>2026-04-12T08:27:16Z</time></trkpt><trkpt lat="43.80904729554323" lon="10.9287163083628"><ele>244.0</ele><time>2026-04-12T08:27:20Z</time></trkpt><trkpt lat="43.80911336290844" lon="10.928738074730477"><ele>244.0</ele><time>2026-04-12T08:27:24Z</time></trkpt><trkpt lat="43.80918775594683" lon="10.928725132025626"><ele>243.99999999999997</ele><time>2026-04-12T08:27:28Z</time></trkpt><trkpt lat="43.80925904132291" lon="10.928717462583629"><ele>244.0</ele><time>2026-04-12T08:27:32.001Z</time></trkpt><trkpt lat="43.8093432139834" lon="10.928697546441736"><ele>245.83333333333331</ele><time>2026-04-12T08:27:36.001Z</time></trkpt><trkpt lat="43.8094214869069" lon="10.928689136090858"><ele>247.66666666666666</ele><time>2026-04-12T08:27:40.001Z</time></trkpt><trkpt lat="43.80949681781026" lon="10.92870113194769"><ele>249.5</ele><time>2026-04-12T08:27:44.001Z</time></trkpt><trkpt lat="43.809577036209525" lon="10.928702416119279"><ele>251.33333333333331</ele><time>2026-04-12T08:27:48.001Z</time></trkpt><trkpt lat="43.809653171950664" lon="10.92871645633195"><ele>253.16666666666666</ele><time>2026-04-12T08:27:52.001Z</time></trkpt><trkpt lat="43.80973706226373" lon="10.928745846760453"><ele>255.0</ele><time>2026-04-12T08:27:56.001Z</time></trkpt><trkpt lat="43.80982038734689" lon="10.928741976530807"><ele>255.0</ele><time>2026-04-12T08:28:00.001Z</time></trkpt><trkpt lat="43.80989897162583" lon="10.92873507910135"><ele>255.0</ele><time>2026-04-12T08:28:04.001Z</time></trkpt><trkpt lat="43.809964157823245" lon="10.928671266315297"><ele>255.0</ele><time>2026-04-12T08:28:07.001Z</time></trkpt><trkpt lat="43.81001698206553" lon="10.928615232652252"><ele>255.0</ele><time>2026-04-12T08:28:10.001Z</time></trkpt><trkpt lat="43.810033739343424" lon="10.92851224058328"><ele>255.0</ele><time>2026-04-12T08:28:13.002Z</time></trkpt><trkpt lat="43.810029328485996" lon="10.928378908267828"><ele>255.0</ele><time>2026-04-12T08:28:17.002Z</time></trkpt><trkpt lat="43.810000477991906" lon="10.928265104850814"><ele>253.42857142857144</ele><time>2026-04-12T08:28:21.002Z</time></trkpt><trkpt lat="43.81001788399633" lon="10.928174524243968"><ele>251.8571428571429</ele><time>2026-04-12T08:28:23.002Z</time></trkpt><trkpt lat="43.810003537046875" lon="10.928064425493833"><ele>250.28571428571428</ele><time>2026-04-12T08:28:27.002Z</time></trkpt><trkpt lat="43.810018850608074" lon="10.927975894676257"><ele>248.71428571428572</ele><time>2026-04-12T08:28:30.002Z</time></trkpt><trkpt lat="43.810044425392114" lon="10.927873839460602"><ele>247.14285714285714</ele><time>2026-04-12T08:28:33.002Z</time></trkpt><trkpt lat="43.810066572369614" lon="10.92778103675417"><ele>245.57142857142856</ele><time>2026-04-12T08:28:36.002Z</time></trkpt><trkpt lat="43.8101027212513" lon="10.927680262899857"><ele>243.99999999999997</ele><time>2026-04-12T08:28:39.002Z</time></trkpt><trkpt lat="43.81013547359209" lon="10.927589017021704"><ele>246.99999999999997</ele><time>2026-04-12T08:28:42.002Z</time></trkpt><trkpt lat="43.8101696455009" lon="10.927482439539778"><ele>250.0</ele><time>2026-04-12T08:28:46.002Z</time></trkpt><trkpt lat="43.81018415113387" lon="10.927371530948918"><ele>253.0</ele><time>2026-04-12T08:28:50.002Z</time></trkpt><trkpt lat="43.810214274494925" lon="10.927278675211078"><ele>256.0</ele><time>2026-04-12T08:28:53.003Z</time></trkpt><trkpt lat="43.81023842117905" lon="10.927174670288007"><ele>259.0</ele><time>2026-04-12T08:28:57.003Z</time></trkpt><trkpt lat="43.810276944911664" lon="10.927089791252998"><ele>262.0</ele><time>2026-04-12T08:29:00Z</time></trkpt><trkpt lat="43.81028889866885" lon="10.926995151439312"><ele>262.0</ele><time>2026-04-12T08:29:03Z</time></trkpt><trkpt lat="43.81034582436347" lon="10.9269007509484"><ele>262.0</ele><time>2026-04-12T08:29:07Z</time></trkpt><trkpt lat="43.81039853664823" lon="10.926826871146897"><ele>262.0</ele><time>2026-04-12T08:29:11Z</time></trkpt><trkpt lat="43.81045766807826" lon="10.926736706855374"><ele>262.0</ele><time>2026-04-12T08:29:15Z</time></trkpt><trkpt lat="43.810498383100324" lon="10.926651531284612"><ele>262.0</ele><time>2026-04-12T08:29:18Z</time></trkpt><trkpt lat="43.81054086799733" lon="10.926576436564128"><ele>262.0</ele><time>2026-04-12T08:29:21Z</time></trkpt><trkpt lat="43.810590213840115" lon="10.926515108248424"><ele>260.57142857142856</ele><time>2026-04-12T08:29:24Z</time></trkpt><trkpt lat="43.81064066188449" lon="10.926460253850756"><ele>259.14285714285717</ele><time>2026-04-12T08:29:27Z</time></trkpt><trkpt lat="43.81068904040449" lon="10.92638740065496"><ele>257.7142857142857</ele><time>2026-04-12T08:29:30Z</time></trkpt><trkpt lat="43.81072069484914" lon="10.926306754428232"><ele>256.2857142857143</ele><time>2026-04-12T08:29:33Z</time></trkpt><trkpt lat="43.81076941259325" lon="10.926235776262102"><ele>254.85714285714286</ele><time>2026-04-12T08:29:36Z</time></trkpt><trkpt lat="43.810817803984726" lon="10.926147993777565"><ele>253.42857142857144</ele><time>2026-04-12T08:29:39.001Z</time></trkpt><trkpt lat="43.81087731024199" lon="10.926085614224933"><ele>252.0</ele><time>2026-04-12T08:29:43.001Z</time></trkpt><trkpt lat="43.810942028924885" lon="10.926064289690077"><ele>252.66666666666666</ele><time>2026-04-12T08:29:46.001Z</time></trkpt><trkpt lat="43.811016646662466" lon="10.926066906327641"><ele>253.33333333333331</ele><time>2026-04-12T08:29:50.001Z</time></trkpt><trkpt lat="43.81108854850745" lon="10.926118348016766"><ele>254.0</ele><time>2026-04-12T08:29:55.001Z</time></trkpt><trkpt lat="43.811134662993425" lon="10.92620365096391"><ele>254.66666666666666</ele><time>2026-04-12T08:29:59.001Z</time></trkpt><trkpt lat="43.811194738339296" lon="10.926281466652227"><ele>255.33333333333331</ele><time>2026-04-12T08:30:03.001Z</time></trkpt><trkpt lat="43.81124246270779" lon="10.92635237003014"><ele>256.0</ele><time>2026-04-12T08:30:06.001Z</time></trkpt><trkpt lat="43.81131016175909" lon="10.926390455520353"><ele>255.99999999999997</ele><time>2026-04-12T08:30:09.001Z</time></trkpt><trkpt lat="43.81138478392371" lon="10.926399019650075"><ele>256.0</ele><time>2026-04-12T08:30:12.001Z</time></trkpt><trkpt lat="43.81145695466918" lon="10.926410505114598"><ele>256.0</ele><time>2026-04-12T08:30:15.001Z</time></trkpt><trkpt lat="43.8115327560426" lon="10.926408934076596"><ele>256.0</ele><time>2026-04-12T08:30:18.001Z</time></trkpt><trkpt lat="43.811601960472" lon="10.926397360141436"><ele>255.99999999999997</ele><time>2026-04-12T08:30:21.002Z</time></trkpt><trkpt lat="43.81167697292472" lon="10.92635934681223"><ele>256.0</ele><time>2026-04-12T08:30:24.002Z</time></trkpt><trkpt lat="43.81175136746365" lon="10.926320662928767"><ele>255.99999999999997</ele><time>2026-04-12T08:30:27.002Z</time></trkpt><trkpt lat="43.81180707077412" lon="10.926259725156562"><ele>256.0</ele><time>2026-04-12T08:30:30.002Z</time></trkpt><trkpt lat="43.81185943816116" lon="10.926180964938204"><ele>256.0</ele><time>2026-04-12T08:30:33.002Z</time></trkpt><trkpt lat="43.8119368552074" lon="10.92613258336978"><ele>256.0</ele><time>2026-04-12T08:30:37.002Z</time></trkpt><trkpt lat="43.81202785079269" lon="10.926149845173288"><ele>255.99999999999997</ele><time>2026-04-12T08:30:41.002Z</time></trkpt><trkpt lat="43.81208962026328" lon="10.926203139851905"><ele>256.0</ele><time>2026-04-12T08:30:45.002Z</time></trkpt><trkpt lat="43.8121485923263" lon="10.926258176150162"><ele>254.99999999999997</ele><time>2026-04-12T08:30:48.002Z</time></trkpt><trkpt lat="43.81220498452428" lon="10.926319936853943"><ele>254.0</ele><time>2026-04-12T08:30:52.002Z</time></trkpt><trkpt lat="43.81224974380734" lon="10.926386997243284"><ele>253.0</ele><time>2026-04-12T08:30:55.002Z</time></trkpt><trkpt lat="43.8123141956856" lon="10.926462843281277"><ele>252.0</ele><time>2026-04-12T08:30:59.002Z</time></trkpt><trkpt lat="43.81237170559718" lon="10.926548583280287"><ele>250.99999999999997</ele><time>2026-04-12T08:31:03.003Z</time></trkpt><trkpt lat="43.81243360755932" lon="10.926624666052655"><ele>250.0</ele><time>2026-04-12T08:31:07Z</time></trkpt><trkpt lat="43.81248369142496" lon="10.92671275208886"><ele>249.66666666666666</ele><time>2026-04-12T08:31:11Z</time></trkpt><trkpt lat="43.812537844489476" lon="10.926773263029256"><ele>249.33333333333331</ele><time>2026-04-12T08:31:14Z</time></trkpt><trkpt lat="43.81261120276528" lon="10.926836184730604"><ele>249.0</ele><time>2026-04-12T08:31:18Z</time></trkpt><trkpt lat="43.81265571222971" lon="10.926905614650803"><ele>248.66666666666669</ele><time>2026-04-12T08:31:21Z</time></trkpt><trkpt lat="43.812716261675575" lon="10.92697379125339"><ele>248.33333333333334</ele><time>2026-04-12T08:31:24Z</time></trkpt><trkpt lat="43.81277623717884" lon="10.927041321669813"><ele>248.0</ele><time>2026-04-12T08:31:28Z</time></trkpt><trkpt lat="43.812836160959954" lon="10.927110061930508"><ele>248.0</ele><time>2026-04-12T08:31:32Z</time></trkpt><trkpt lat="43.812890516469984" lon="10.927182754813119"><ele>248.00000000000003</ele><time>2026-04-12T08:31:35Z</time></trkpt><trkpt lat="43.812934215505976" lon="10.927259326077891"><ele>248.0</ele><time>2026-04-12T08:31:39Z</time></trkpt><trkpt lat="43.81297353522973" lon="10.927341697940529"><ele>248.0</ele><time>2026-04-12T08:31:43Z</time></trkpt><trkpt lat="43.813012701977115" lon="10.92743682959126"><ele>248.00000000000003</ele><time>2026-04-12T08:31:46Z</time></trkpt><trkpt lat="43.81305074012509" lon="10.927529166930002"><ele>248.0</ele><time>2026-04-12T08:31:50.001Z</time></trkpt><trkpt lat="43.81309303014772" lon="10.927607358981275"><ele>248.0</ele><time>2026-04-12T08:31:53.001Z</time></trkpt><trkpt lat="43.81314495968561" lon="10.927686903525347"><ele>251.33333333333334</ele><time>2026-04-12T08:31:56.001Z</time></trkpt><trkpt lat="43.8132048349474" lon="10.92779005780961"><ele>254.66666666666669</ele><time>2026-04-12T08:32:00.001Z</time></trkpt><trkpt lat="43.81325812190209" lon="10.927855489209396"><ele>258.0</ele><time>2026-04-12T08:32:03.001Z</time></trkpt><trkpt lat="43.813303121787044" lon="10.9279253439545"><ele>261.3333333333333</ele><time>2026-04-12T08:32:06.001Z</time></trkpt><trkpt lat="43.81335084071904" lon="10.928014894220512"><ele>264.66666666666663</ele><time>2026-04-12T08:32:09.001Z</time></trkpt><trkpt lat="43.81338927063073" lon="10.928102254861704"><ele>268.0</ele><time>2026-04-12T08:32:12.001Z</time></trkpt><trkpt lat="43.81344215713352" lon="10.928201091811452"><ele>268.0</ele><time>2026-04-12T08:32:16.001Z</time></trkpt><trkpt lat="43.813481571573256" lon="10.928278182011187"><ele>268.0</ele><time>2026-04-12T08:32:19.001Z</time></trkpt><trkpt lat="43.81353759003253" lon="10.928354880676343"><ele>268.0</ele><time>2026-04-12T08:32:22.001Z</time></trkpt><trkpt lat="43.813598001746946" lon="10.928421540509536"><ele>268.0</ele><time>2026-04-12T08:32:25.001Z</time></trkpt><trkpt lat="43.81363195577074" lon="10.928496944469217"><ele>268.0</ele><time>2026-04-12T08:32:27.001Z</time></trkpt><trkpt lat="43.81368643195963" lon="10.928562141526092"><ele>268.0</ele><time>2026-04-12T08:32:30.002Z</time></trkpt><trkpt lat="43.8137481331333" lon="10.928619007544311"><ele>268.0</ele><time>2026-04-12T08:32:33.002Z</time></trkpt><trkpt lat="43.81381292420863" lon="10.928664100331746"><ele>268.0</ele><time>2026-04-12T08:32:36.002Z</time></trkpt><trkpt lat="43.81387787103066" lon="10.928712288447851"><ele>268.0</ele><time>2026-04-12T08:32:39.002Z</time></trkpt><trkpt lat="43.81393984939049" lon="10.928777427777467"><ele>268.0</ele><time>2026-04-12T08:32:42.002Z</time></trkpt><trkpt lat="43.81400235169335" lon="10.928853063954662"><ele>268.0</ele><time>2026-04-12T08:32:45.002Z</time></trkpt><trkpt lat="43.814058995054474" lon="10.928912546340365"><ele>268.0</ele><time>2026-04-12T08:32:48.002Z</time></trkpt><trkpt lat="43.814119980525575" lon="10.928968313775092"><ele>268.0</ele><time>2026-04-12T08:32:51.002Z</time></trkpt><trkpt lat="43.814188670897174" lon="10.929005080504949"><ele>268.0</ele><time>2026-04-12T08:32:54.002Z</time></trkpt><trkpt lat="43.814251416329974" lon="10.929058782238636"><ele>268.0</ele><time>2026-04-12T08:32:57.002Z</time></trkpt><trkpt lat="43.81431569111233" lon="10.929103425870593"><ele>268.0</ele><time>2026-04-12T08:33:00.002Z</time></trkpt><trkpt lat="43.814376230293604" lon="10.929128220729751"><ele>268.0</ele><time>2026-04-12T08:33:02.002Z</time></trkpt><trkpt lat="43.81444185207965" lon="10.929180317350713"><ele>268.0</ele><time>2026-04-12T08:33:05.002Z</time></trkpt><trkpt lat="43.814495529939826" lon="10.92924978590759"><ele>268.0</ele><time>2026-04-12T08:33:08.002Z</time></trkpt><trkpt lat="43.814557365115085" lon="10.929309717052044"><ele>268.0</ele><time>2026-04-12T08:33:11Z</time></trkpt><trkpt lat="43.8146144736668" lon="10.929373704502195"><ele>270.16666666666663</ele><time>2026-04-12T08:33:14Z</time></trkpt><trkpt lat="43.81467277889771" lon="10.929427847500847"><ele>272.3333333333333</ele><time>2026-04-12T08:33:17Z</time></trkpt><trkpt lat="43.81473173524983" lon="10.929494006278688"><ele>274.5</ele><time>2026-04-12T08:33:20Z</time></trkpt><trkpt lat="43.81479124748541" lon="10.929547594409474"><ele>276.6666666666667</ele><time>2026-04-12T08:33:23Z</time></trkpt><trkpt lat="43.81487004002507" lon="10.929548874620973"><ele>278.83333333333337</ele><time>2026-04-12T08:33:26Z</time></trkpt><trkpt lat="43.81496054302897" lon="10.929525967439531"><ele>281.0</ele><time>2026-04-12T08:33:29Z</time></trkpt><trkpt lat="43.815033638936335" lon="10.929503149294385"><ele>281.00000000000006</ele><time>2026-04-12T08:33:32Z</time></trkpt><trkpt lat="43.81511404486097" lon="10.92949837633331"><ele>281.0</ele><time>2026-04-12T08:33:35Z</time></trkpt><trkpt lat="43.815172104062455" lon="10.92954075306452"><ele>281.0</ele><time>2026-04-12T08:33:37Z</time></trkpt><trkpt lat="43.81524060896676" lon="10.929559674155321"><ele>281.0</ele><time>2026-04-12T08:33:40Z</time></trkpt><trkpt lat="43.81531233851681" lon="10.929609318731387"><ele>281.0</ele><time>2026-04-12T08:33:43Z</time></trkpt><trkpt lat="43.81537974812155" lon="10.929659796384552"><ele>281.00000000000006</ele><time>2026-04-12T08:33:47Z</time></trkpt><trkpt lat="43.8154485522756" lon="10.929692666148295"><ele>281.0</ele><time>2026-04-12T08:33:50Z</time></trkpt><trkpt lat="43.81550098367427" lon="10.92975673889198"><ele>283.28571428571433</ele><time>2026-04-12T08:33:53.001Z</time></trkpt><trkpt lat="43.815563679653756" lon="10.929809756995425"><ele>285.57142857142856</ele><time>2026-04-12T08:33:56.001Z</time></trkpt><trkpt lat="43.81561771423206" lon="10.929855283598593"><ele>287.8571428571429</ele><time>2026-04-12T08:33:59.001Z</time></trkpt><trkpt lat="43.815675395537376" lon="10.929907876466268"><ele>290.14285714285717</ele><time>2026-04-12T08:34:02.001Z</time></trkpt><trkpt lat="43.815729465755275" lon="10.929955162985657"><ele>292.42857142857144</ele><time>2026-04-12T08:34:05.001Z</time></trkpt><trkpt lat="43.815786048641094" lon="10.930007677536722"><ele>294.7142857142857</ele><time>2026-04-12T08:34:08.001Z</time></trkpt><trkpt lat="43.8158600545357" lon="10.93005320559449"><ele>297.0</ele><time>2026-04-12T08:34:12.001Z</time></trkpt><trkpt lat="43.81591640200775" lon="10.930100034183408"><ele>297.0</ele><time>2026-04-12T08:34:15.001Z</time></trkpt><trkpt lat="43.815983397925265" lon="10.93014201205745"><ele>297.0</ele><time>2026-04-12T08:34:18.001Z</time></trkpt><trkpt lat="43.816051471967185" lon="10.93019536911232"><ele>297.0</ele><time>2026-04-12T08:34:21.001Z</time></trkpt><trkpt lat="43.81611551567709" lon="10.930256241665573"><ele>297.0</ele><time>2026-04-12T08:34:24.001Z</time></trkpt><trkpt lat="43.81618421440025" lon="10.930287995400434"><ele>297.0</ele><time>2026-04-12T08:34:27.001Z</time></trkpt><trkpt lat="43.816244411081755" lon="10.930336852176"><ele>297.0</ele><time>2026-04-12T08:34:30.001Z</time></trkpt><trkpt lat="43.81630748635082" lon="10.930367167427924"><ele>297.0</ele><time>2026-04-12T08:34:33.002Z</time></trkpt><trkpt lat="43.8163902432107" lon="10.930422770207683"><ele>293.6666666666667</ele><time>2026-04-12T08:34:37.002Z</time></trkpt><trkpt lat="43.81646677960568" lon="10.930436330901964"><ele>290.3333333333333</ele><time>2026-04-12T08:34:40.002Z</time></trkpt><trkpt lat="43.81653188817977" lon="10.930391686865626"><ele>287.0</ele><time>2026-04-12T08:34:42.002Z</time></trkpt><trkpt lat="43.81659559289446" lon="10.930293048675361"><ele>283.66666666666663</ele><time>2026-04-12T08:34:45.002Z</time></trkpt><trkpt lat="43.81663742293091" lon="10.930205199268363"><ele>280.3333333333333</ele><time>2026-04-12T08:34:48.002Z</time></trkpt><trkpt lat="43.816651069370245" lon="10.93010223271374"><ele>277.0</ele><time>2026-04-12T08:34:51.002Z</time></trkpt><trkpt lat="43.81663479473744" lon="10.930015475493704"><ele>275.7142857142857</ele><time>2026-04-12T08:34:54.002Z</time></trkpt><trkpt lat="43.816592128068756" lon="10.929937611412342"><ele>274.4285714285714</ele><time>2026-04-12T08:34:57.002Z</time></trkpt><trkpt lat="43.816560859784225" lon="10.929854777004259"><ele>273.1428571428571</ele><time>2026-04-12T08:35:00.002Z</time></trkpt><trkpt lat="43.81653604121593" lon="10.929766193267168"><ele>271.85714285714283</ele><time>2026-04-12T08:35:03.002Z</time></trkpt><trkpt lat="43.816497917714265" lon="10.929666979008555"><ele>270.57142857142856</ele><time>2026-04-12T08:35:07.002Z</time></trkpt><trkpt lat="43.81645732357887" lon="10.929586097354559"><ele>269.2857142857143</ele><time>2026-04-12T08:35:11.003Z</time></trkpt><trkpt lat="43.816427761169" lon="10.92949110863577"><ele>268.0</ele><time>2026-04-12T08:35:15.003Z</time></trkpt><trkpt lat="43.81639368591358" lon="10.929410755915022"><ele>268.0</ele><time>2026-04-12T08:35:18Z</time></trkpt><trkpt lat="43.81637418175314" lon="10.929318900157899"><ele>268.0</ele><time>2026-04-12T08:35:22Z</time></trkpt><trkpt lat="43.81634558279135" lon="10.92923247805373"><ele>268.0</ele><time>2026-04-12T08:35:26Z</time></trkpt><trkpt lat="43.8163025463558" lon="10.929153805468395"><ele>268.0</ele><time>2026-04-12T08:35:30Z</time></trkpt><trkpt lat="43.81627419983269" lon="10.929058979637176"><ele>268.0</ele><time>2026-04-12T08:35:34Z</time></trkpt><trkpt lat="43.8162344728627" lon="10.928966547644817"><ele>268.0</ele><time>2026-04-12T08:35:38Z</time></trkpt><trkpt lat="43.81620958417495" lon="10.928871541285604"><ele>268.0</ele><time>2026-04-12T08:35:42Z</time></trkpt><trkpt lat="43.816173701597585" lon="10.92878677619203"><ele>267.14285714285717</ele><time>2026-04-12T08:35:45Z</time></trkpt><trkpt lat="43.816139048718135" lon="10.928707284184288"><ele>266.2857142857143</ele><time>2026-04-12T08:35:48Z</time></trkpt><trkpt lat="43.816093871344336" lon="10.928633214284815"><ele>265.42857142857144</ele><time>2026-04-12T08:35:52.001Z</time></trkpt><trkpt lat="43.81604513637839" lon="10.928553420656092"><ele>264.57142857142856</ele><time>2026-04-12T08:35:56.001Z</time></trkpt><trkpt lat="43.81599998366877" lon="10.928489778664108"><ele>263.7142857142857</ele><time>2026-04-12T08:35:59.001Z</time></trkpt><trkpt lat="43.81595045152233" lon="10.928427399504777"><ele>262.8571428571429</ele><time>2026-04-12T08:36:02.001Z</time></trkpt><trkpt lat="43.81590292888279" lon="10.92836141151596"><ele>262.0</ele><time>2026-04-12T08:36:06.001Z</time></trkpt><trkpt lat="43.81586194950755" lon="10.928292000902713"><ele>262.0</ele><time>2026-04-12T08:36:09.001Z</time></trkpt><trkpt lat="43.81580599146097" lon="10.928205988342075"><ele>262.0</ele><time>2026-04-12T08:36:13.001Z</time></trkpt><trkpt lat="43.815767742914495" lon="10.92812314511333"><ele>262.0</ele><time>2026-04-12T08:36:17.001Z</time></trkpt><trkpt lat="43.81573302907128" lon="10.928045273301548"><ele>262.0</ele><time>2026-04-12T08:36:20.001Z</time></trkpt><trkpt lat="43.81570085226386" lon="10.927967559779608"><ele>262.0</ele><time>2026-04-12T08:36:24.001Z</time></trkpt><trkpt lat="43.8156635341953" lon="10.927861678227455"><ele>262.0</ele><time>2026-04-12T08:36:28.001Z</time></trkpt><trkpt lat="43.815612760890275" lon="10.92778007025227"><ele>262.0</ele><time>2026-04-12T08:36:32.002Z</time></trkpt><trkpt lat="43.815564299264615" lon="10.927693604248871"><ele>262.0</ele><time>2026-04-12T08:36:36.002Z</time></trkpt><trkpt lat="43.815541139869964" lon="10.927612201791511"><ele>262.0</ele><time>2026-04-12T08:36:39.002Z</time></trkpt><trkpt lat="43.81551789579423" lon="10.927502935801964"><ele>262.0</ele><time>2026-04-12T08:36:43.002Z</time></trkpt><trkpt lat="43.81549610249466" lon="10.927411285801522"><ele>262.0</ele><time>2026-04-12T08:36:47.002Z</time></trkpt><trkpt lat="43.815517056973086" lon="10.927310827827773"><ele>262.0</ele><time>2026-04-12T08:36:51.002Z</time></trkpt><trkpt lat="43.81553657188397" lon="10.927200887609928"><ele>262.0</ele><time>2026-04-12T08:36:55.002Z</time></trkpt><trkpt lat="43.81553538606001" lon="10.927102131652212"><ele>262.0</ele><time>2026-04-12T08:36:59.002Z</time></trkpt><trkpt lat="43.81556827590969" lon="10.926997168423469"><ele>263.0</ele><time>2026-04-12T08:37:03.002Z</time></trkpt><trkpt lat="43.81560681694575" lon="10.926914488496594"><ele>264.0</ele><time>2026-04-12T08:37:07.002Z</time></trkpt><trkpt lat="43.81562404192055" lon="10.926801838821692"><ele>265.0</ele><time>2026-04-12T08:37:11.003Z</time></trkpt><trkpt lat="43.81565694877243" lon="10.926718092837033"><ele>266.0</ele><time>2026-04-12T08:37:15.003Z</time></trkpt><trkpt lat="43.815689736707256" lon="10.926631636207407"><ele>267.0</ele><time>2026-04-12T08:37:19.003Z</time></trkpt><trkpt lat="43.81575636054802" lon="10.926609455942804"><ele>268.0</ele><time>2026-04-12T08:37:23Z</time></trkpt><trkpt lat="43.81582244488988" lon="10.926617904322999"><ele>269.0</ele><time>2026-04-12T08:37:27Z</time></trkpt><trkpt lat="43.81589265489665" lon="10.926653237457774"><ele>269.0</ele><time>2026-04-12T08:37:31Z</time></trkpt><trkpt lat="43.81595032407562" lon="10.926708812614999"><ele>269.0</ele><time>2026-04-12T08:37:35Z</time></trkpt><trkpt lat="43.81601499110753" lon="10.926768808351678"><ele>269.0</ele><time>2026-04-12T08:37:39Z</time></trkpt><trkpt lat="43.81609677219614" lon="10.926808636391232"><ele>269.0</ele><time>2026-04-12T08:37:43Z</time></trkpt><trkpt lat="43.816165913782136" lon="10.92682658300402"><ele>269.0</ele><time>2026-04-12T08:37:47Z</time></trkpt><trkpt lat="43.81624411535817" lon="10.926798562583539"><ele>269.0</ele><time>2026-04-12T08:37:51Z</time></trkpt><trkpt lat="43.816305165451396" lon="10.926765102346543"><ele>269.2857142857143</ele><time>2026-04-12T08:37:54Z</time></trkpt><trkpt lat="43.81637592271773" lon="10.926726258918094"><ele>269.5714285714286</ele><time>2026-04-12T08:37:57.001Z</time></trkpt><trkpt lat="43.816437094758925" lon="10.926677380441667"><ele>269.8571428571429</ele><time>2026-04-12T08:38:00.001Z</time></trkpt><trkpt lat="43.81650683623726" lon="10.92662525422122"><ele>270.14285714285717</ele><time>2026-04-12T08:38:04.001Z</time></trkpt><trkpt lat="43.81658420276441" lon="10.92665336911404"><ele>270.42857142857144</ele><time>2026-04-12T08:38:07.001Z</time></trkpt><trkpt lat="43.816654193653996" lon="10.926649589040444"><ele>270.7142857142857</ele><time>2026-04-12T08:38:11.001Z</time></trkpt><trkpt lat="43.81672495792166" lon="10.926672627263295"><ele>271.0</ele><time>2026-04-12T08:38:14.001Z</time></trkpt><trkpt lat="43.816787788802465" lon="10.926743203959692"><ele>274.2857142857143</ele><time>2026-04-12T08:38:18.001Z</time></trkpt><trkpt lat="43.816868450013764" lon="10.926770885373253"><ele>277.57142857142856</ele><time>2026-04-12T08:38:22.001Z</time></trkpt><trkpt lat="43.81694692754648" lon="10.926804959218527"><ele>280.8571428571429</ele><time>2026-04-12T08:38:26.001Z</time></trkpt><trkpt lat="43.817010224639816" lon="10.926811082860565"><ele>284.1428571428571</ele><time>2026-04-12T08:38:29.001Z</time></trkpt><trkpt lat="43.81707713247645" lon="10.926831338429388"><ele>287.42857142857144</ele><time>2026-04-12T08:38:32.001Z</time></trkpt><trkpt lat="43.81714553035381" lon="10.926865689406352"><ele>290.7142857142857</ele><time>2026-04-12T08:38:35.002Z</time></trkpt><trkpt lat="43.81721753959434" lon="10.92689791772047"><ele>294.0</ele><time>2026-04-12T08:38:39.002Z</time></trkpt><trkpt lat="43.81728629776108" lon="10.926944415864781"><ele>294.0</ele><time>2026-04-12T08:38:43.002Z</time></trkpt><trkpt lat="43.817346334408406" lon="10.92701640018948"><ele>294.0</ele><time>2026-04-12T08:38:47.002Z</time></trkpt><trkpt lat="43.817390926383126" lon="10.927088051623569"><ele>294.0</ele><time>2026-04-12T08:38:50.002Z</time></trkpt><trkpt lat="43.817459862910965" lon="10.927142851634336"><ele>294.0</ele><time>2026-04-12T08:38:54.002Z</time></trkpt><trkpt lat="43.817527753335355" lon="10.927206784493656"><ele>294.0</ele><time>2026-04-12T08:38:58.002Z</time></trkpt><trkpt lat="43.81758510258364" lon="10.927246416995086"><ele>294.0</ele><time>2026-04-12T08:39:01.002Z</time></trkpt><trkpt lat="43.817645633500085" lon="10.927286389127953"><ele>294.0</ele><time>2026-04-12T08:39:04.002Z</time></trkpt><trkpt lat="43.81773157196957" lon="10.927301817548322"><ele>294.1666666666667</ele><time>2026-04-12T08:39:08.002Z</time></trkpt><trkpt lat="43.817814312130615" lon="10.927298415373134"><ele>294.3333333333333</ele><time>2026-04-12T08:39:12.002Z</time></trkpt><trkpt lat="43.81788958943144" lon="10.927335563845997"><ele>294.5</ele><time>2026-04-12T08:39:15.003Z</time></trkpt><trkpt lat="43.81796013514648" lon="10.927336484090157"><ele>294.66666666666663</ele><time>2026-04-12T08:39:19.003Z</time></trkpt><trkpt lat="43.818029842807334" lon="10.927357617370063"><ele>294.8333333333333</ele><time>2026-04-12T08:39:22.003Z</time></trkpt><trkpt lat="43.81810395675261" lon="10.927379704909558"><ele>295.0</ele><time>2026-04-12T08:39:25.003Z</time></trkpt><trkpt lat="43.818176081301246" lon="10.927365862809218"><ele>295.0</ele><time>2026-04-12T08:39:28.003Z</time></trkpt><trkpt lat="43.81822609162252" lon="10.92730015939313"><ele>295.0</ele><time>2026-04-12T08:39:30Z</time></trkpt><trkpt lat="43.81826458700887" lon="10.927222000719391"><ele>295.0</ele><time>2026-04-12T08:39:32Z</time></trkpt><trkpt lat="43.818272211427264" lon="10.927088459727365"><ele>295.0</ele><time>2026-04-12T08:39:35Z</time></trkpt><trkpt lat="43.818257170275174" lon="10.926998366855614"><ele>295.0</ele><time>2026-04-12T08:39:38Z</time></trkpt><trkpt lat="43.8182422482171" lon="10.926897576867223"><ele>295.0</ele><time>2026-04-12T08:39:41Z</time></trkpt><trkpt lat="43.81823200305073" lon="10.926790335121817"><ele>294.00000000000006</ele><time>2026-04-12T08:39:44Z</time></trkpt><trkpt lat="43.818223259450825" lon="10.926699159269537"><ele>293.0</ele><time>2026-04-12T08:39:47Z</time></trkpt><trkpt lat="43.81820727563771" lon="10.926595095760897"><ele>292.0</ele><time>2026-04-12T08:39:50Z</time></trkpt><trkpt lat="43.818175151847655" lon="10.926485162791801"><ele>291.0</ele><time>2026-04-12T08:39:54Z</time></trkpt><trkpt lat="43.81815380467438" lon="10.926402446272013"><ele>290.0</ele><time>2026-04-12T08:39:57Z</time></trkpt><trkpt lat="43.818132979696145" lon="10.926318261213753"><ele>289.00000000000006</ele><time>2026-04-12T08:40:00.001Z</time></trkpt><trkpt lat="43.818115007077" lon="10.926228890376972"><ele>288.0</ele><time>2026-04-12T08:40:03.001Z</time></trkpt><trkpt lat="43.81812856357446" lon="10.926119778154773"><ele>288.0</ele><time>2026-04-12T08:40:06.001Z</time></trkpt><trkpt lat="43.818135882103256" lon="10.926015042598257"><ele>288.0</ele><time>2026-04-12T08:40:09.001Z</time></trkpt><trkpt lat="43.818157425382424" lon="10.925915778516526"><ele>288.0</ele><time>2026-04-12T08:40:12.001Z</time></trkpt><trkpt lat="43.81815617876903" lon="10.925816445060656"><ele>288.0</ele><time>2026-04-12T08:40:15.001Z</time></trkpt><trkpt lat="43.81820416904299" lon="10.925711016028286"><ele>288.0</ele><time>2026-04-12T08:40:19.001Z</time></trkpt><trkpt lat="43.818261493311184" lon="10.925671938140693"><ele>288.0</ele><time>2026-04-12T08:40:22.001Z</time></trkpt><trkpt lat="43.81834629197336" lon="10.925676627456234"><ele>289.0</ele><time>2026-04-12T08:40:26.001Z</time></trkpt><trkpt lat="43.818414473970115" lon="10.92566197458534"><ele>290.0</ele><time>2026-04-12T08:40:29.001Z</time></trkpt><trkpt lat="43.81850419198953" lon="10.92564995747094"><ele>291.0</ele><time>2026-04-12T08:40:33.001Z</time></trkpt><trkpt lat="43.818570987092684" lon="10.925627656492571"><ele>292.0</ele><time>2026-04-12T08:40:36.001Z</time></trkpt><trkpt lat="43.81866137729655" lon="10.925594726254362"><ele>293.0</ele><time>2026-04-12T08:40:40.002Z</time></trkpt><trkpt lat="43.81872417307687" lon="10.925554105643696"><ele>294.0</ele><time>2026-04-12T08:40:43.002Z</time></trkpt><trkpt lat="43.818775379528816" lon="10.925499254487452"><ele>294.0</ele><time>2026-04-12T08:40:46.002Z</time></trkpt><trkpt lat="43.81884524043289" lon="10.92545096290118"><ele>294.0</ele><time>2026-04-12T08:40:49.002Z</time></trkpt><trkpt lat="43.818908202971414" lon="10.925406347354505"><ele>294.0</ele><time>2026-04-12T08:40:52.002Z</time></trkpt><trkpt lat="43.81897377435102" lon="10.925384854066769"><ele>294.0</ele><time>2026-04-12T08:40:55.002Z</time></trkpt><trkpt lat="43.81903333042246" lon="10.925319948973378"><ele>294.0</ele><time>2026-04-12T08:40:58.002Z</time></trkpt><trkpt lat="43.81911269940373" lon="10.92531279055844"><ele>294.0</ele><time>2026-04-12T08:41:02.002Z</time></trkpt><trkpt lat="43.81918182604025" lon="10.925341850082267"><ele>294.0</ele><time>2026-04-12T08:41:05.002Z</time></trkpt><trkpt lat="43.8192359883677" lon="10.92539228380941"><ele>294.0</ele><time>2026-04-12T08:41:09.002Z</time></trkpt><trkpt lat="43.81928925936526" lon="10.925451120641306"><ele>294.0</ele><time>2026-04-12T08:41:12.002Z</time></trkpt><trkpt lat="43.81934730155366" lon="10.925519996469571"><ele>294.0</ele><time>2026-04-12T08:41:16.002Z</time></trkpt><trkpt lat="43.81939956687455" lon="10.925571113502318"><ele>294.0</ele><time>2026-04-12T08:41:19.003Z</time></trkpt><trkpt lat="43.819456175674766" lon="10.925647129789068"><ele>294.0</ele><time>2026-04-12T08:41:22.003Z</time></trkpt><trkpt lat="43.81949315478876" lon="10.925727999293274"><ele>294.0</ele><time>2026-04-12T08:41:25.003Z</time></trkpt><trkpt lat="43.81955730491923" lon="10.925789758728246"><ele>294.0</ele><time>2026-04-12T08:41:29.003Z</time></trkpt><trkpt lat="43.819614052649726" lon="10.925860930884983"><ele>293.3333333333333</ele><time>2026-04-12T08:41:32.003Z</time></trkpt><trkpt lat="43.819679510351726" lon="10.925916821716235"><ele>292.6666666666667</ele><time>2026-04-12T08:41:36Z</time></trkpt><trkpt lat="43.81972219031421" lon="10.925982289509454"><ele>292.0</ele><time>2026-04-12T08:41:39Z</time></trkpt><trkpt lat="43.819766569339876" lon="10.92608411749258"><ele>291.33333333333337</ele><time>2026-04-12T08:41:43Z</time></trkpt><trkpt lat="43.81983268725605" lon="10.926172178751672"><ele>290.6666666666667</ele><time>2026-04-12T08:41:47Z</time></trkpt><trkpt lat="43.81986309254248" lon="10.926256449211959"><ele>290.0</ele><time>2026-04-12T08:41:50Z</time></trkpt><trkpt lat="43.81990651641351" lon="10.926334199142191"><ele>290.0</ele><time>2026-04-12T08:41:54Z</time></trkpt><trkpt lat="43.81996822111452" lon="10.92641776000557"><ele>290.0</ele><time>2026-04-12T08:41:59Z</time></trkpt><trkpt lat="43.81999685401438" lon="10.926534578243349"><ele>290.0</ele><time>2026-04-12T08:42:02Z</time></trkpt><trkpt lat="43.82003078047155" lon="10.926626573221348"><ele>290.0</ele><time>2026-04-12T08:42:05.001Z</time></trkpt><trkpt lat="43.82006643633711" lon="10.926730142500784"><ele>290.0</ele><time>2026-04-12T08:42:09.001Z</time></trkpt><trkpt lat="43.820110554221564" lon="10.926801757851878"><ele>290.0</ele><time>2026-04-12T08:42:12.001Z</time></trkpt><trkpt lat="43.82015990391493" lon="10.926882204110417"><ele>288.8571428571429</ele><time>2026-04-12T08:42:15.001Z</time></trkpt><trkpt lat="43.82018805291582" lon="10.926963707171572"><ele>287.7142857142857</ele><time>2026-04-12T08:42:18.001Z</time></trkpt><trkpt lat="43.82021412703857" lon="10.927051304937354"><ele>286.57142857142856</ele><time>2026-04-12T08:42:21.001Z</time></trkpt><trkpt lat="43.82025468990973" lon="10.927144963980851"><ele>285.42857142857144</ele><time>2026-04-12T08:42:24.001Z</time></trkpt><trkpt lat="43.82029473009016" lon="10.92723813145041"><ele>284.2857142857143</ele><time>2026-04-12T08:42:29.001Z</time></trkpt><trkpt lat="43.82032403995366" lon="10.927324373682882"><ele>283.14285714285717</ele><time>2026-04-12T08:42:32.001Z</time></trkpt><trkpt lat="43.820356257092996" lon="10.927435172653272"><ele>282.0</ele><time>2026-04-12T08:42:36.001Z</time></trkpt><trkpt lat="43.820382048776395" lon="10.92753469864702"><ele>285.1666666666667</ele><time>2026-04-12T08:42:39.001Z</time></trkpt><trkpt lat="43.82041118831717" lon="10.927649909244247"><ele>288.3333333333333</ele><time>2026-04-12T08:42:43.002Z</time></trkpt><trkpt lat="43.82044282285746" lon="10.927739365721994"><ele>291.5</ele><time>2026-04-12T08:42:46.002Z</time></trkpt><trkpt lat="43.82048759555064" lon="10.927837059378712"><ele>294.66666666666663</ele><time>2026-04-12T08:42:50.002Z</time></trkpt><trkpt lat="43.82053577055361" lon="10.927920161571981"><ele>297.8333333333333</ele><time>2026-04-12T08:42:53.002Z</time></trkpt><trkpt lat="43.82059493217311" lon="10.927994347371188"><ele>301.0</ele><time>2026-04-12T08:42:56.002Z</time></trkpt><trkpt lat="43.82064343249993" lon="10.928051234050608"><ele>301.0</ele><time>2026-04-12T08:42:58.002Z</time></trkpt><trkpt lat="43.82069580342919" lon="10.928110656825606"><ele>301.0</ele><time>2026-04-12T08:43:01.002Z</time></trkpt><trkpt lat="43.82075270171717" lon="10.928176196122713"><ele>301.0</ele><time>2026-04-12T08:43:04.002Z</time></trkpt><trkpt lat="43.8208056038813" lon="10.928265388164723"><ele>301.0</ele><time>2026-04-12T08:43:07.002Z</time></trkpt><trkpt lat="43.82085493075548" lon="10.928359772661961"><ele>301.0</ele><time>2026-04-12T08:43:11.002Z</time></trkpt><trkpt lat="43.82089975998081" lon="10.92843394921003"><ele>301.0</ele><time>2026-04-12T08:43:14.002Z</time></trkpt><trkpt lat="43.820962466539136" lon="10.92847046724457"><ele>301.0</ele><time>2026-04-12T08:43:17.002Z</time></trkpt><trkpt lat="43.82102087386232" lon="10.928505810576882"><ele>301.7142857142857</ele><time>2026-04-12T08:43:19.002Z</time></trkpt><trkpt lat="43.821096844036" lon="10.928511542777475"><ele>302.42857142857144</ele><time>2026-04-12T08:43:23.003Z</time></trkpt><trkpt lat="43.82115970030173" lon="10.928473602034341"><ele>303.1428571428571</ele><time>2026-04-12T08:43:26.003Z</time></trkpt><trkpt lat="43.82120433744102" lon="10.928384754505753"><ele>303.8571428571429</ele><time>2026-04-12T08:43:29.003Z</time></trkpt><trkpt lat="43.82123132257806" lon="10.928275294088971"><ele>304.57142857142856</ele><time>2026-04-12T08:43:32.003Z</time></trkpt><trkpt lat="43.82123722905068" lon="10.928169669611165"><ele>305.2857142857143</ele><time>2026-04-12T08:43:35.003Z</time></trkpt><trkpt lat="43.8212660095471" lon="10.928086357605473"><ele>306.0</ele><time>2026-04-12T08:43:38.003Z</time></trkpt><trkpt lat="43.821286899944724" lon="10.927997195017795"><ele>306.0</ele><time>2026-04-12T08:43:41Z</time></trkpt><trkpt lat="43.8213031998763" lon="10.927912815592553"><ele>306.0</ele><time>2026-04-12T08:43:44Z</time></trkpt><trkpt lat="43.82129646150292" lon="10.927809256041032"><ele>306.0</ele><time>2026-04-12T08:43:47Z</time></trkpt><trkpt lat="43.82132057088481" lon="10.92771839198041"><ele>306.0</ele><time>2026-04-12T08:43:50Z</time></trkpt><trkpt lat="43.82138135518398" lon="10.927634828063551"><ele>306.0</ele><time>2026-04-12T08:43:54Z</time></trkpt><trkpt lat="43.82144941672789" lon="10.927619573072763"><ele>306.0</ele><time>2026-04-12T08:43:58Z</time></trkpt><trkpt lat="43.82152148300786" lon="10.927594352864146"><ele>306.0</ele><time>2026-04-12T08:44:02Z</time></trkpt><trkpt lat="43.821591868010415" lon="10.927579019840731"><ele>306.0</ele><time>2026-04-12T08:44:05Z</time></trkpt><trkpt lat="43.82167564173418" lon="10.927582905455385"><ele>306.0</ele><time>2026-04-12T08:44:09Z</time></trkpt><trkpt lat="43.821754878006196" lon="10.927588950633817"><ele>306.0</ele><time>2026-04-12T08:44:13.001Z</time></trkpt><trkpt lat="43.821827042007854" lon="10.927591109665645"><ele>306.0</ele><time>2026-04-12T08:44:16.001Z</time></trkpt><trkpt lat="43.82190195527454" lon="10.927585133992736"><ele>306.0</ele><time>2026-04-12T08:44:19.001Z</time></trkpt><trkpt lat="43.82196832360334" lon="10.927554338352168"><ele>306.0</ele><time>2026-04-12T08:44:22.001Z</time></trkpt><trkpt lat="43.82204223870379" lon="10.927493123980357"><ele>306.8333333333333</ele><time>2026-04-12T08:44:26.001Z</time></trkpt><trkpt lat="43.822080943723385" lon="10.92739790850162"><ele>307.6666666666667</ele><time>2026-04-12T08:44:29.001Z</time></trkpt><trkpt lat="43.82209487024617" lon="10.927310238514833"><ele>308.5</ele><time>2026-04-12T08:44:31.001Z</time></trkpt><trkpt lat="43.82209379180467" lon="10.927196572529711"><ele>309.33333333333337</ele><time>2026-04-12T08:44:34.001Z</time></trkpt><trkpt lat="43.82207081790229" lon="10.927072709804028"><ele>310.1666666666667</ele><time>2026-04-12T08:44:37.001Z</time></trkpt><trkpt lat="43.82200910407904" lon="10.926974099482067"><ele>311.0</ele><time>2026-04-12T08:44:40.001Z</time></trkpt><trkpt lat="43.82196192833464" lon="10.926901278912618"><ele>311.0</ele><time>2026-04-12T08:44:43.001Z</time></trkpt><trkpt lat="43.82189899336494" lon="10.926822224804042"><ele>311.0</ele><time>2026-04-12T08:44:46.001Z</time></trkpt><trkpt lat="43.82184402535837" lon="10.926758708957246"><ele>311.0</ele><time>2026-04-12T08:44:49.001Z</time></trkpt><trkpt lat="43.82179337473672" lon="10.926668314703475"><ele>311.0</ele><time>2026-04-12T08:44:52.002Z</time></trkpt><trkpt lat="43.821742579912" lon="10.926606830447025"><ele>311.0</ele><time>2026-04-12T08:44:54.002Z</time></trkpt><trkpt lat="43.82169893095734" lon="10.926532278739431"><ele>311.0</ele><time>2026-04-12T08:44:57.002Z</time></trkpt><trkpt lat="43.82165769039271" lon="10.926465524552082"><ele>311.0</ele><time>2026-04-12T08:45:00.002Z</time></trkpt><trkpt lat="43.82163178939765" lon="10.92638538995761"><ele>307.7142857142857</ele><time>2026-04-12T08:45:03.002Z</time></trkpt><trkpt lat="43.82160600568588" lon="10.926297490468254"><ele>304.42857142857144</ele><time>2026-04-12T08:45:06.002Z</time></trkpt><trkpt lat="43.82159483109664" lon="10.926195354595517"><ele>301.14285714285717</ele><time>2026-04-12T08:45:09.002Z</time></trkpt><trkpt lat="43.8216064664732" lon="10.926095222290055"><ele>297.8571428571429</ele><time>2026-04-12T08:45:12.002Z</time></trkpt><trkpt lat="43.8215959124581" lon="10.925994037974109"><ele>294.57142857142856</ele><time>2026-04-12T08:45:15.002Z</time></trkpt><trkpt lat="43.821585305672336" lon="10.925878096690873"><ele>291.28571428571433</ele><time>2026-04-12T08:45:19.002Z</time></trkpt><trkpt lat="43.82159876121822" lon="10.925783013451333"><ele>288.0</ele><time>2026-04-12T08:45:22.002Z</time></trkpt><trkpt lat="43.82162271654711" lon="10.925689544900193"><ele>288.00000000000006</ele><time>2026-04-12T08:45:25.002Z</time></trkpt><trkpt lat="43.821646011033316" lon="10.925598972589134"><ele>288.0</ele><time>2026-04-12T08:45:28.002Z</time></trkpt><trkpt lat="43.82167972853674" lon="10.925519947953372"><ele>288.0</ele><time>2026-04-12T08:45:31.003Z</time></trkpt><trkpt lat="43.82173222513534" lon="10.92544982820108"><ele>288.0</ele><time>2026-04-12T08:45:34.003Z</time></trkpt><trkpt lat="43.8217799148275" lon="10.92539136618471"><ele>288.0</ele><time>2026-04-12T08:45:37.003Z</time></trkpt><trkpt lat="43.821838344180854" lon="10.92535118767789"><ele>288.00000000000006</ele><time>2026-04-12T08:45:40.003Z</time></trkpt><trkpt lat="43.821900073132994" lon="10.925313266724642"><ele>288.0</ele><time>2026-04-12T08:45:44.003Z</time></trkpt><trkpt lat="43.821964743248174" lon="10.925312993193566"><ele>289.8571428571429</ele><time>2026-04-12T08:45:47Z</time></trkpt><trkpt lat="43.822041487274696" lon="10.925335786300378"><ele>291.7142857142857</ele><time>2026-04-12T08:45:50Z</time></trkpt><trkpt lat="43.82211493832677" lon="10.925336468077965"><ele>293.57142857142856</ele><time>2026-04-12T08:45:54Z</time></trkpt><trkpt lat="43.82217994397764" lon="10.92533384060487"><ele>295.42857142857144</ele><time>2026-04-12T08:45:57Z</time></trkpt><trkpt lat="43.822264137918175" lon="10.925325719751424"><ele>297.2857142857143</ele><time>2026-04-12T08:46:01Z</time></trkpt><trkpt lat="43.82232723934591" lon="10.925319154317"><ele>299.14285714285717</ele><time>2026-04-12T08:46:04Z</time></trkpt><trkpt lat="43.82239642274811" lon="10.925315481103711"><ele>301.0</ele><time>2026-04-12T08:46:07Z</time></trkpt><trkpt lat="43.82245865606961" lon="10.925334577794445"><ele>301.0</ele><time>2026-04-12T08:46:10Z</time></trkpt><trkpt lat="43.822534784136856" lon="10.925395586668538"><ele>301.0</ele><time>2026-04-12T08:46:15Z</time></trkpt><trkpt lat="43.822598383739404" lon="10.925469671123484"><ele>301.0</ele><time>2026-04-12T08:46:19.001Z</time></trkpt><trkpt lat="43.8226401139743" lon="10.925539272730399"><ele>301.0</ele><time>2026-04-12T08:46:22.001Z</time></trkpt><trkpt lat="43.82268728131949" lon="10.925620259282859"><ele>301.0</ele><time>2026-04-12T08:46:26.001Z</time></trkpt><trkpt lat="43.82273156597145" lon="10.925696256194916"><ele>301.0</ele><time>2026-04-12T08:46:29.001Z</time></trkpt><trkpt lat="43.82279059834992" lon="10.92576646825802"><ele>301.0</ele><time>2026-04-12T08:46:33.001Z</time></trkpt><trkpt lat="43.822837121406685" lon="10.925827016849631"><ele>301.0</ele><time>2026-04-12T08:46:36.001Z</time></trkpt><trkpt lat="43.82288857887683" lon="10.92591306593898"><ele>301.0</ele><time>2026-04-12T08:46:40.001Z</time></trkpt><trkpt lat="43.82292994591306" lon="10.925993818020352"><ele>301.0</ele><time>2026-04-12T08:46:43.001Z</time></trkpt><trkpt lat="43.82297349167823" lon="10.926091016743621"><ele>301.0</ele><time>2026-04-12T08:46:46.001Z</time></trkpt><trkpt lat="43.823043529236045" lon="10.926140929667913"><ele>301.0</ele><time>2026-04-12T08:46:49.001Z</time></trkpt><trkpt lat="43.82310401810603" lon="10.926205588363537"><ele>301.0</ele><time>2026-04-12T08:46:52.001Z</time></trkpt><trkpt lat="43.823148472353786" lon="10.926286760135882"><ele>301.0</ele><time>2026-04-12T08:46:55.002Z</time></trkpt><trkpt lat="43.82321345421119" lon="10.926340863065496"><ele>301.0</ele><time>2026-04-12T08:46:58.002Z</time></trkpt><trkpt lat="43.82327469336294" lon="10.926410211167108"><ele>301.0</ele><time>2026-04-12T08:47:01.002Z</time></trkpt><trkpt lat="43.823317211014455" lon="10.926481035530415"><ele>301.0</ele><time>2026-04-12T08:47:04.002Z</time></trkpt><trkpt lat="43.82336659281305" lon="10.926567977840895"><ele>301.0</ele><time>2026-04-12T08:47:07.002Z</time></trkpt><trkpt lat="43.82340525899228" lon="10.926638166539751"><ele>301.0</ele><time>2026-04-12T08:47:10.002Z</time></trkpt><trkpt lat="43.823444883359564" lon="10.926715106128269"><ele>299.42857142857144</ele><time>2026-04-12T08:47:13.002Z</time></trkpt><trkpt lat="43.823489982002435" lon="10.926779609020247"><ele>297.8571428571429</ele><time>2026-04-12T08:47:16.002Z</time></trkpt><trkpt lat="43.823529205844046" lon="10.926852279041553"><ele>296.2857142857143</ele><time>2026-04-12T08:47:19.002Z</time></trkpt><trkpt lat="43.82356182380539" lon="10.926929024029002"><ele>294.7142857142857</ele><time>2026-04-12T08:47:21.002Z</time></trkpt><trkpt lat="43.823603819124195" lon="10.927003374117492"><ele>293.14285714285717</ele><time>2026-04-12T08:47:24.002Z</time></trkpt><trkpt lat="43.82365274998172" lon="10.927078804487033"><ele>291.57142857142856</ele><time>2026-04-12T08:47:27.002Z</time></trkpt><trkpt lat="43.82368570123213" lon="10.92717839964508"><ele>290.0</ele><time>2026-04-12T08:47:30.002Z</time></trkpt><trkpt lat="43.82371556914728" lon="10.927267284262904"><ele>290.0</ele><time>2026-04-12T08:47:33.002Z</time></trkpt><trkpt lat="43.823739719043886" lon="10.927356585220869"><ele>290.0</ele><time>2026-04-12T08:47:36.003Z</time></trkpt><trkpt lat="43.82376440005356" lon="10.927449068836658"><ele>290.0</ele><time>2026-04-12T08:47:39.003Z</time></trkpt><trkpt lat="43.82380081399638" lon="10.927546762667902"><ele>290.0</ele><time>2026-04-12T08:47:42.003Z</time></trkpt><trkpt lat="43.823841419124456" lon="10.927652914742692"><ele>290.0</ele><time>2026-04-12T08:47:45.003Z</time></trkpt><trkpt lat="43.82387580356079" lon="10.927756398377586"><ele>290.0</ele><time>2026-04-12T08:47:48.003Z</time></trkpt><trkpt lat="43.8239193996268" lon="10.927843912467656"><ele>290.14285714285717</ele><time>2026-04-12T08:47:51.003Z</time></trkpt><trkpt lat="43.82395809917783" lon="10.927920134165468"><ele>290.28571428571433</ele><time>2026-04-12T08:47:53Z</time></trkpt><trkpt lat="43.82401393115045" lon="10.9280023851462"><ele>290.42857142857144</ele><time>2026-04-12T08:47:56Z</time></trkpt><trkpt lat="43.824075032945544" lon="10.92803799049902"><ele>290.57142857142856</ele><time>2026-04-12T08:47:58Z</time></trkpt><trkpt lat="43.8241602413047" lon="10.928048118161493"><ele>290.71428571428567</ele><time>2026-04-12T08:48:01Z</time></trkpt><trkpt lat="43.82422557614837" lon="10.928028716336566"><ele>290.85714285714283</ele><time>2026-04-12T08:48:03Z</time></trkpt><trkpt lat="43.82430214519349" lon="10.927998907211105"><ele>291.0</ele><time>2026-04-12T08:48:06Z</time></trkpt><trkpt lat="43.8243666041661" lon="10.927981676360433"><ele>291.0</ele><time>2026-04-12T08:48:09Z</time></trkpt><trkpt lat="43.82443469822793" lon="10.927983325106613"><ele>291.0</ele><time>2026-04-12T08:48:11Z</time></trkpt><trkpt lat="43.82451981960069" lon="10.927993142070783"><ele>291.0</ele><time>2026-04-12T08:48:14Z</time></trkpt><trkpt lat="43.82459558109018" lon="10.928044047918775"><ele>291.0</ele><time>2026-04-12T08:48:17Z</time></trkpt><trkpt lat="43.82466359554936" lon="10.92811371405326"><ele>291.0</ele><time>2026-04-12T08:48:20Z</time></trkpt><trkpt lat="43.82471576277301" lon="10.928171306508775"><ele>291.0</ele><time>2026-04-12T08:48:23.001Z</time></trkpt><trkpt lat="43.82477938642249" lon="10.928224186930132"><ele>291.0</ele><time>2026-04-12T08:48:26.001Z</time></trkpt><trkpt lat="43.8248339563904" lon="10.928295235119782"><ele>291.0</ele><time>2026-04-12T08:48:29.001Z</time></trkpt><trkpt lat="43.82490168079044" lon="10.92835664902426"><ele>291.0</ele><time>2026-04-12T08:48:32.001Z</time></trkpt><trkpt lat="43.824950862749915" lon="10.928438004333147"><ele>291.0</ele><time>2026-04-12T08:48:35.001Z</time></trkpt><trkpt lat="43.825001425381934" lon="10.928504919835342"><ele>291.0</ele><time>2026-04-12T08:48:38.001Z</time></trkpt><trkpt lat="43.8250566029922" lon="10.928586035079645"><ele>291.0</ele><time>2026-04-12T08:48:41.001Z</time></trkpt><trkpt lat="43.82510011612796" lon="10.928667655278973"><ele>290.8333333333333</ele><time>2026-04-12T08:48:44.001Z</time></trkpt><trkpt lat="43.8251570691844" lon="10.928734798802495"><ele>290.6666666666667</ele><time>2026-04-12T08:48:47.001Z</time></trkpt><trkpt lat="43.82520745124969" lon="10.928813166972919"><ele>290.5</ele><time>2026-04-12T08:48:50.001Z</time></trkpt><trkpt lat="43.825261071507285" lon="10.928884031268579"><ele>290.33333333333337</ele><time>2026-04-12T08:48:53.001Z</time></trkpt><trkpt lat="43.82531115283081" lon="10.928966284416463"><ele>290.1666666666667</ele><time>2026-04-12T08:48:56.001Z</time></trkpt><trkpt lat="43.82534405890721" lon="10.929072313078843"><ele>290.0</ele><time>2026-04-12T08:48:59.001Z</time></trkpt><trkpt lat="43.825408742060546" lon="10.929169336407574"><ele>291.33333333333337</ele><time>2026-04-12T08:49:03.002Z</time></trkpt><trkpt lat="43.825450746106696" lon="10.929256358092529"><ele>292.6666666666667</ele><time>2026-04-12T08:49:06.002Z</time></trkpt><trkpt lat="43.82549048265423" lon="10.929368354906615"><ele>294.0</ele><time>2026-04-12T08:49:09.002Z</time></trkpt><trkpt lat="43.82553190380724" lon="10.929470272958904"><ele>295.3333333333333</ele><time>2026-04-12T08:49:12.002Z</time></trkpt><trkpt lat="43.82556950813022" lon="10.929557216760282"><ele>296.66666666666663</ele><time>2026-04-12T08:49:15.002Z</time></trkpt><trkpt lat="43.82560379314058" lon="10.929652837456324"><ele>298.0</ele><time>2026-04-12T08:49:18.002Z</time></trkpt><trkpt lat="43.825625672757596" lon="10.929759636706299"><ele>298.0</ele><time>2026-04-12T08:49:21.002Z</time></trkpt><trkpt lat="43.82565937677964" lon="10.929847281714403"><ele>298.0</ele><time>2026-04-12T08:49:24.002Z</time></trkpt><trkpt lat="43.82574271393348" lon="10.929923502069586"><ele>298.0</ele><time>2026-04-12T08:49:27.002Z</time></trkpt><trkpt lat="43.82580324486568" lon="10.929966075022381"><ele>298.0</ele><time>2026-04-12T08:49:30.002Z</time></trkpt><trkpt lat="43.82588745674349" lon="10.92995367899271"><ele>298.0</ele><time>2026-04-12T08:49:33.002Z</time></trkpt><trkpt lat="43.82596222785111" lon="10.929917824831243"><ele>298.0</ele><time>2026-04-12T08:49:36.002Z</time></trkpt><trkpt lat="43.82602870035672" lon="10.929859987200688"><ele>300.5</ele><time>2026-04-12T08:49:39.002Z</time></trkpt><trkpt lat="43.826087048057886" lon="10.929769461488448"><ele>303.0</ele><time>2026-04-12T08:49:42.003Z</time></trkpt><trkpt lat="43.82611948252382" lon="10.92967524142452"><ele>305.5</ele><time>2026-04-12T08:49:45.003Z</time></trkpt><trkpt lat="43.82613245797216" lon="10.929570920688217"><ele>308.0</ele><time>2026-04-12T08:49:48.003Z</time></trkpt><trkpt lat="43.826125315061454" lon="10.92946584266036"><ele>310.5</ele><time>2026-04-12T08:49:51.003Z</time></trkpt><trkpt lat="43.826124341986294" lon="10.929364102606508"><ele>313.0</ele><time>2026-04-12T08:49:54.003Z</time></trkpt><trkpt lat="43.82611983087404" lon="10.929243876276395"><ele>312.66666666666663</ele><time>2026-04-12T08:49:57.003Z</time></trkpt><trkpt lat="43.8261114142679" lon="10.929135282767167"><ele>312.3333333333333</ele><time>2026-04-12T08:50:00Z</time></trkpt><trkpt lat="43.826110997387865" lon="10.929014973988817"><ele>312.0</ele><time>2026-04-12T08:50:03Z</time></trkpt><trkpt lat="43.82609309211119" lon="10.928912709181743"><ele>311.6666666666667</ele><time>2026-04-12T08:50:06Z</time></trkpt><trkpt lat="43.82608333499056" lon="10.928807605468558"><ele>311.33333333333337</ele><time>2026-04-12T08:50:09Z</time></trkpt><trkpt lat="43.82608670920256" lon="10.928687578429127"><ele>311.0</ele><time>2026-04-12T08:50:12Z</time></trkpt><trkpt lat="43.82609211985695" lon="10.928580330437322"><ele>311.0</ele><time>2026-04-12T08:50:15Z</time></trkpt><trkpt lat="43.82608651743134" lon="10.928475499675642"><ele>311.0</ele><time>2026-04-12T08:50:18Z</time></trkpt><trkpt lat="43.826071552674165" lon="10.928373718206151"><ele>311.0</ele><time>2026-04-12T08:50:21.001Z</time></trkpt><trkpt lat="43.82607302383439" lon="10.928281235771095"><ele>311.0</ele><time>2026-04-12T08:50:24.001Z</time></trkpt><trkpt lat="43.82606889759192" lon="10.928181835378918"><ele>311.0</ele><time>2026-04-12T08:50:27.001Z</time></trkpt><trkpt lat="43.82609549362667" lon="10.928084124416426"><ele>311.0</ele><time>2026-04-12T08:50:30.001Z</time></trkpt><trkpt lat="43.826125241518305" lon="10.928002132032015"><ele>311.0</ele><time>2026-04-12T08:50:33.001Z</time></trkpt><trkpt lat="43.826178362686015" lon="10.92792436037151"><ele>309.85714285714283</ele><time>2026-04-12T08:50:37.001Z</time></trkpt><trkpt lat="43.82624468526077" lon="10.927884427645767"><ele>308.7142857142857</ele><time>2026-04-12T08:50:41.001Z</time></trkpt><trkpt lat="43.82631572256155" lon="10.927898654598136"><ele>307.57142857142856</ele><time>2026-04-12T08:50:45.001Z</time></trkpt><trkpt lat="43.8263901795642" lon="10.927931328010342"><ele>306.42857142857144</ele><time>2026-04-12T08:50:49.001Z</time></trkpt><trkpt lat="43.82646204649054" lon="10.927936726117931"><ele>305.2857142857143</ele><time>2026-04-12T08:50:53.001Z</time></trkpt><trkpt lat="43.826535390313595" lon="10.927958282832913"><ele>304.14285714285717</ele><time>2026-04-12T08:50:57.001Z</time></trkpt><trkpt lat="43.82660430062111" lon="10.92799180294846"><ele>303.0</ele><time>2026-04-12T08:51:00.002Z</time></trkpt><trkpt lat="43.826674818387566" lon="10.92804086328562"><ele>303.0</ele><time>2026-04-12T08:51:04.002Z</time></trkpt><trkpt lat="43.82674738670121" lon="10.928047572861322"><ele>303.0</ele><time>2026-04-12T08:51:08.002Z</time></trkpt><trkpt lat="43.826823096900114" lon="10.928096012632494"><ele>303.0</ele><time>2026-04-12T08:51:11.002Z</time></trkpt><trkpt lat="43.82688612082232" lon="10.928147526171877"><ele>303.0</ele><time>2026-04-12T08:51:15.002Z</time></trkpt><trkpt lat="43.82694457802316" lon="10.928214519592375"><ele>303.0</ele><time>2026-04-12T08:51:18.002Z</time></trkpt><trkpt lat="43.82701622384822" lon="10.928278324899633"><ele>303.0</ele><time>2026-04-12T08:51:23.002Z</time></trkpt><trkpt lat="43.82707465247392" lon="10.928321272103696"><ele>302.2857142857143</ele><time>2026-04-12T08:51:26.002Z</time></trkpt><trkpt lat="43.82713294357284" lon="10.928377362669126"><ele>301.57142857142856</ele><time>2026-04-12T08:51:29.002Z</time></trkpt><trkpt lat="43.82720119347819" lon="10.928435535982503"><ele>300.85714285714283</ele><time>2026-04-12T08:51:33.002Z</time></trkpt><trkpt lat="43.827233150096006" lon="10.92851459384831"><ele>300.1428571428571</ele><time>2026-04-12T08:51:36.002Z</time></trkpt><trkpt lat="43.82728905140879" lon="10.928565046318369"><ele>299.4285714285714</ele><time>2026-04-12T08:51:40.003Z</time></trkpt><trkpt lat="43.82733508331506" lon="10.928627516968973"><ele>298.7142857142857</ele><time>2026-04-12T08:51:43.003Z</time></trkpt><trkpt lat="43.82738909828985" lon="10.928686208730293"><ele>298.0</ele><time>2026-04-12T08:51:46.003Z</time></trkpt><trkpt lat="43.82744834375781" lon="10.92871988381339"><ele>301.66666666666663</ele><time>2026-04-12T08:51:49.003Z</time></trkpt><trkpt lat="43.82752637974952" lon="10.928754794623535"><ele>305.3333333333333</ele><time>2026-04-12T08:51:53.003Z</time></trkpt><trkpt lat="43.827591748341945" lon="10.928774466481707"><ele>309.0</ele><time>2026-04-12T08:51:56.003Z</time></trkpt><trkpt lat="43.82766103874146" lon="10.928792238627627"><ele>312.6666666666667</ele><time>2026-04-12T08:51:59.003Z</time></trkpt><trkpt lat="43.82774303806422" lon="10.928798423764034"><ele>316.33333333333337</ele><time>2026-04-12T08:52:03.003Z</time></trkpt><trkpt lat="43.82780657096654" lon="10.9287781250716"><ele>320.0</ele><time>2026-04-12T08:52:06.001Z</time></trkpt><trkpt lat="43.827893042599996" lon="10.92874891281205"><ele>320.0</ele><time>2026-04-12T08:52:09.001Z</time></trkpt><trkpt lat="43.82797142000521" lon="10.928695426265858"><ele>320.0</ele><time>2026-04-12T08:52:13.001Z</time></trkpt><trkpt lat="43.828014797536085" lon="10.928607129334656"><ele>320.0</ele><time>2026-04-12T08:52:16.001Z</time></trkpt><trkpt lat="43.82803982845625" lon="10.928507832909807"><ele>320.0</ele><time>2026-04-12T08:52:19.001Z</time></trkpt><trkpt lat="43.82799962553927" lon="10.928413800525673"><ele>320.0</ele><time>2026-04-12T08:52:22.001Z</time></trkpt><trkpt lat="43.827965485912955" lon="10.928340167257483"><ele>320.0</ele><time>2026-04-12T08:52:25.001Z</time></trkpt><trkpt lat="43.82790512384105" lon="10.928258348579146"><ele>319.42857142857144</ele><time>2026-04-12T08:52:29.001Z</time></trkpt><trkpt lat="43.82785887943091" lon="10.92819404576039"><ele>318.8571428571429</ele><time>2026-04-12T08:52:32.001Z</time></trkpt><trkpt lat="43.827821462776676" lon="10.92812171108024"><ele>318.28571428571433</ele><time>2026-04-12T08:52:35.001Z</time></trkpt><trkpt lat="43.82778618633093" lon="10.928047627806"><ele>317.7142857142857</ele><time>2026-04-12T08:52:38.001Z</time></trkpt><trkpt lat="43.82775098052734" lon="10.927944229043389"><ele>317.14285714285717</ele><time>2026-04-12T08:52:42.001Z</time></trkpt><trkpt lat="43.82771877403386" lon="10.927854701465758"><ele>316.5714285714286</ele><time>2026-04-12T08:52:46.001Z</time></trkpt><trkpt lat="43.8277149446476" lon="10.927753509332092"><ele>316.0</ele><time>2026-04-12T08:52:50.001Z</time></trkpt><trkpt lat="43.827716935328986" lon="10.927662290278645"><ele>317.5714285714286</ele><time>2026-04-12T08:52:54.002Z</time></trkpt><trkpt lat="43.8277222393419" lon="10.927557333075148"><ele>319.14285714285717</ele><time>2026-04-12T08:52:58.002Z</time></trkpt><trkpt lat="43.82773810239495" lon="10.927440802148736"><ele>320.7142857142857</ele><time>2026-04-12T08:53:02.002Z</time></trkpt><trkpt lat="43.827761590261105" lon="10.927336432325768"><ele>322.28571428571433</ele><time>2026-04-12T08:53:06.002Z</time></trkpt><trkpt lat="43.82778986766632" lon="10.927241211707425"><ele>323.8571428571429</ele><time>2026-04-12T08:53:09.002Z</time></trkpt><trkpt lat="43.827785652665845" lon="10.927149879471662"><ele>325.42857142857144</ele><time>2026-04-12T08:53:12.002Z</time></trkpt><trkpt lat="43.827771841372" lon="10.927058870283076"><ele>327.0</ele><time>2026-04-12T08:53:15.002Z</time></trkpt><trkpt lat="43.82772437967012" lon="10.926984319804134"><ele>327.0</ele><time>2026-04-12T08:53:18.002Z</time></trkpt><trkpt lat="43.82766777952574" lon="10.926899809577096"><ele>327.0</ele><time>2026-04-12T08:53:22.002Z</time></trkpt><trkpt lat="43.82762707138575" lon="10.926827539327396"><ele>327.0</ele><time>2026-04-12T08:53:25.002Z</time></trkpt><trkpt lat="43.82756529507638" lon="10.926753061242618"><ele>327.0</ele><time>2026-04-12T08:53:29.002Z</time></trkpt><trkpt lat="43.82753835878748" lon="10.926658220523523"><ele>327.0</ele><time>2026-04-12T08:53:33.002Z</time></trkpt><trkpt lat="43.82753372716224" lon="10.92655915787313"><ele>327.0</ele><time>2026-04-12T08:53:37.003Z</time></trkpt><trkpt lat="43.82753309302772" lon="10.926444966692038"><ele>325.0</ele><time>2026-04-12T08:53:41.003Z</time></trkpt><trkpt lat="43.82753462841348" lon="10.926345105636535"><ele>323.0</ele><time>2026-04-12T08:53:45.003Z</time></trkpt><trkpt lat="43.82751515096369" lon="10.926258239702486"><ele>321.0</ele><time>2026-04-12T08:53:48.003Z</time></trkpt><trkpt lat="43.827494171965796" lon="10.926153752586806"><ele>319.0</ele><time>2026-04-12T08:53:52.003Z</time></trkpt><trkpt lat="43.8274657286376" lon="10.926070038041948"><ele>317.0</ele><time>2026-04-12T08:53:55.003Z</time></trkpt><trkpt lat="43.82741324593049" lon="10.925993274278362"><ele>315.0</ele><time>2026-04-12T08:53:59.003Z</time></trkpt><trkpt lat="43.82736527215442" lon="10.925918464258691"><ele>313.0</ele><time>2026-04-12T08:54:03.003Z</time></trkpt><trkpt lat="43.8272909121018" lon="10.925860911209995"><ele>313.0</ele><time>2026-04-12T08:54:07.003Z</time></trkpt><trkpt lat="43.8272394171021" lon="10.925775453258368"><ele>313.0</ele><time>2026-04-12T08:54:11.002Z</time></trkpt><trkpt lat="43.827201707588465" lon="10.925696730243597"><ele>313.0</ele><time>2026-04-12T08:54:15.002Z</time></trkpt><trkpt lat="43.827191311731774" lon="10.925588603019683"><ele>313.0</ele><time>2026-04-12T08:54:20.002Z</time></trkpt><trkpt lat="43.82723330083533" lon="10.925497507922326"><ele>313.0</ele><time>2026-04-12T08:54:25.002Z</time></trkpt><trkpt lat="43.82729333295925" lon="10.925454106670042"><ele>313.0</ele><time>2026-04-12T08:54:29.002Z</time></trkpt><trkpt lat="43.82735726936762" lon="10.925423876993165"><ele>313.0</ele><time>2026-04-12T08:54:32.002Z</time></trkpt><trkpt lat="43.827407758264776" lon="10.925349810814875"><ele>313.0</ele><time>2026-04-12T08:54:36.002Z</time></trkpt><trkpt lat="43.82745909061115" lon="10.925293559006981"><ele>313.0</ele><time>2026-04-12T08:54:39.002Z</time></trkpt><trkpt lat="43.827501940369245" lon="10.925190103563317"><ele>313.0</ele><time>2026-04-12T08:54:43.002Z</time></trkpt><trkpt lat="43.82751450841422" lon="10.925101873940074"><ele>313.0</ele><time>2026-04-12T08:54:46.002Z</time></trkpt><trkpt lat="43.82754781465386" lon="10.924978996277598"><ele>313.0</ele><time>2026-04-12T08:54:50.002Z</time></trkpt><trkpt lat="43.82756797043192" lon="10.924889970776745"><ele>313.0</ele><time>2026-04-12T08:54:53.002Z</time></trkpt><trkpt lat="43.82757522888238" lon="10.924788869622926"><ele>313.1428571428571</ele><time>2026-04-12T08:54:56.002Z</time></trkpt><trkpt lat="43.827570766474345" lon="10.924682176982484"><ele>313.2857142857143</ele><time>2026-04-12T08:54:59.002Z</time></trkpt><trkpt lat="43.827543455083706" lon="10.924584674632282"><ele>313.42857142857144</ele><time>2026-04-12T08:55:02.002Z</time></trkpt><trkpt lat="43.827525172779495" lon="10.924490913871894"><ele>313.57142857142856</ele><time>2026-04-12T08:55:05.002Z</time></trkpt><trkpt lat="43.827485610393246" lon="10.924396896792699"><ele>313.7142857142857</ele><time>2026-04-12T08:55:08.002Z</time></trkpt><trkpt lat="43.827476579001654" lon="10.92430180613918"><ele>313.85714285714283</ele><time>2026-04-12T08:55:11.002Z</time></trkpt><trkpt lat="43.82746413713262" lon="10.924199485125284"><ele>314.0</ele><time>2026-04-12T08:55:14.002Z</time></trkpt><trkpt lat="43.82744898454275" lon="10.924104335295763"><ele>313.33333333333337</ele><time>2026-04-12T08:55:17.002Z</time></trkpt><trkpt lat="43.82745342731674" lon="10.923996757912631"><ele>312.6666666666667</ele><time>2026-04-12T08:55:21.002Z</time></trkpt><trkpt lat="43.827500723636476" lon="10.923920770622008"><ele>312.0</ele><time>2026-04-12T08:55:24.002Z</time></trkpt><trkpt lat="43.827560403340065" lon="10.923856132621857"><ele>311.3333333333333</ele><time>2026-04-12T08:55:28.002Z</time></trkpt><trkpt lat="43.82763617599657" lon="10.923870842114406"><ele>310.66666666666663</ele><time>2026-04-12T08:55:31.002Z</time></trkpt><trkpt lat="43.827707369837974" lon="10.92390438926075"><ele>310.0</ele><time>2026-04-12T08:55:35.003Z</time></trkpt><trkpt lat="43.82777880638369" lon="10.923942199955523"><ele>309.57142857142856</ele><time>2026-04-12T08:55:39.003Z</time></trkpt><trkpt lat="43.82784146645577" lon="10.924008216403685"><ele>309.1428571428571</ele><time>2026-04-12T08:55:43.003Z</time></trkpt><trkpt lat="43.82788896617889" lon="10.924077368416496"><ele>308.71428571428567</ele><time>2026-04-12T08:55:47.003Z</time></trkpt><trkpt lat="43.82794909777007" lon="10.92415302627912"><ele>308.2857142857143</ele><time>2026-04-12T08:55:51.003Z</time></trkpt><trkpt lat="43.82799379948227" lon="10.924214655019748"><ele>307.85714285714283</ele><time>2026-04-12T08:55:54.003Z</time></trkpt><trkpt lat="43.828051219508694" lon="10.924268897548842"><ele>307.4285714285714</ele><time>2026-04-12T08:55:57.003Z</time></trkpt><trkpt lat="43.828096770079306" lon="10.92433367512642"><ele>307.0</ele><time>2026-04-12T08:56:00.003Z</time></trkpt><trkpt lat="43.82816058184776" lon="10.924394947932436"><ele>308.5</ele><time>2026-04-12T08:56:04.003Z</time></trkpt><trkpt lat="43.828214134292665" lon="10.924461455788107"><ele>310.0</ele><time>2026-04-12T08:56:08.003Z</time></trkpt><trkpt lat="43.828289748858815" lon="10.924516547416463"><ele>311.5</ele><time>2026-04-12T08:56:12.003Z</time></trkpt><trkpt lat="43.82835622824708" lon="10.92457957985674"><ele>313.0</ele><time>2026-04-12T08:56:16.003Z</time></trkpt><trkpt lat="43.828416424120945" lon="10.924631148164629"><ele>314.5</ele><time>2026-04-12T08:56:19.002Z</time></trkpt><trkpt lat="43.82848699261426" lon="10.924694917637083"><ele>316.0</ele><time>2026-04-12T08:56:23.002Z</time></trkpt><trkpt lat="43.82855040955817" lon="10.924764898018651"><ele>316.0</ele><time>2026-04-12T08:56:27.002Z</time></trkpt><trkpt lat="43.8286019936717" lon="10.924823706021481"><ele>316.0</ele><time>2026-04-12T08:56:30.002Z</time></trkpt><trkpt lat="43.82867311406924" lon="10.924890866992243"><ele>316.0</ele><time>2026-04-12T08:56:34.002Z</time></trkpt><trkpt lat="43.828741622565204" lon="10.9249431729444"><ele>316.0</ele><time>2026-04-12T08:56:38.002Z</time></trkpt><trkpt lat="43.828789328573606" lon="10.925023722534153"><ele>316.0</ele><time>2026-04-12T08:56:42.002Z</time></trkpt><trkpt lat="43.828859217804975" lon="10.925071772847451"><ele>316.0</ele><time>2026-04-12T08:56:46.002Z</time></trkpt><trkpt lat="43.82892605568595" lon="10.925103934434146"><ele>320.8333333333333</ele><time>2026-04-12T08:56:50.002Z</time></trkpt><trkpt lat="43.828987136164045" lon="10.9251775472214"><ele>325.66666666666663</ele><time>2026-04-12T08:56:54.002Z</time></trkpt><trkpt lat="43.829038849581345" lon="10.925227369634817"><ele>330.5</ele><time>2026-04-12T08:56:57.002Z</time></trkpt><trkpt lat="43.82910159094398" lon="10.925293314383735"><ele>335.3333333333333</ele><time>2026-04-12T08:57:01.002Z</time></trkpt><trkpt lat="43.82916883902577" lon="10.92535878202227"><ele>340.1666666666667</ele><time>2026-04-12T08:57:05.002Z</time></trkpt><trkpt lat="43.82923528612912" lon="10.925430954264963"><ele>345.0</ele><time>2026-04-12T08:57:09.002Z</time></trkpt><trkpt lat="43.82930643320217" lon="10.925500350392156"><ele>341.8571428571429</ele><time>2026-04-12T08:57:13.002Z</time></trkpt><trkpt lat="43.82937221146386" lon="10.925556741511217"><ele>338.7142857142857</ele><time>2026-04-12T08:57:17.002Z</time></trkpt><trkpt lat="43.829423988624356" lon="10.925608471975435"><ele>335.57142857142856</ele><time>2026-04-12T08:57:20.002Z</time></trkpt><trkpt lat="43.829493734079655" lon="10.925602077457535"><ele>332.42857142857144</ele><time>2026-04-12T08:57:23.002Z</time></trkpt><trkpt lat="43.829553280592606" lon="10.925630795786164"><ele>329.2857142857143</ele><time>2026-04-12T08:57:26.002Z</time></trkpt><trkpt lat="43.829621557368895" lon="10.92565979517458"><ele>326.14285714285717</ele><time>2026-04-12T08:57:30.002Z</time></trkpt><trkpt lat="43.82969318546748" lon="10.925709986508595"><ele>323.0</ele><time>2026-04-12T08:57:34.002Z</time></trkpt><trkpt lat="43.82975316679976" lon="10.925767617899412"><ele>323.0</ele><time>2026-04-12T08:57:38.002Z</time></trkpt><trkpt lat="43.82979569651765" lon="10.925833816142752"><ele>323.0</ele><time>2026-04-12T08:57:42.003Z</time></trkpt><trkpt lat="43.8298493432787" lon="10.925916170578969"><ele>323.0</ele><time>2026-04-12T08:57:46.003Z</time></trkpt><trkpt lat="43.82989292390434" lon="10.925990600940976"><ele>323.0</ele><time>2026-04-12T08:57:50.003Z</time></trkpt><trkpt lat="43.82992971199227" lon="10.92608158784971"><ele>323.0</ele><time>2026-04-12T08:57:54.003Z</time></trkpt><trkpt lat="43.82997817764259" lon="10.926178516572156"><ele>323.0</ele><time>2026-04-12T08:57:58.003Z</time></trkpt><trkpt lat="43.8300293484679" lon="10.926260263112848"><ele>323.7142857142857</ele><time>2026-04-12T08:58:02.003Z</time></trkpt><trkpt lat="43.83006971331621" lon="10.926329574195789"><ele>324.42857142857144</ele><time>2026-04-12T08:58:05.003Z</time></trkpt><trkpt lat="43.83013173769071" lon="10.926377347677347"><ele>325.1428571428571</ele><time>2026-04-12T08:58:08.003Z</time></trkpt><trkpt lat="43.83020048163035" lon="10.926429030648512"><ele>325.8571428571429</ele><time>2026-04-12T08:58:12.003Z</time></trkpt><trkpt lat="43.83025941666606" lon="10.926476089200065"><ele>326.57142857142856</ele><time>2026-04-12T08:58:15.003Z</time></trkpt><trkpt lat="43.830305453602065" lon="10.926537749360051"><ele>327.2857142857143</ele><time>2026-04-12T08:58:18.003Z</time></trkpt><trkpt lat="43.830355305073134" lon="10.92659136935881"><ele>328.0</ele><time>2026-04-12T08:58:21.003Z</time></trkpt><trkpt lat="43.83041654460548" lon="10.926620080689501"><ele>328.0</ele><time>2026-04-12T08:58:24.003Z</time></trkpt><trkpt lat="43.83048515352176" lon="10.926690121466743"><ele>328.0</ele><time>2026-04-12T08:58:28.003Z</time></trkpt><trkpt lat="43.83053990977377" lon="10.9267552980476"><ele>328.0</ele><time>2026-04-12T08:58:32.003Z</time></trkpt><trkpt lat="43.83060912308873" lon="10.92680004492829"><ele>328.0</ele><time>2026-04-12T08:58:36.003Z</time></trkpt><trkpt lat="43.830654203014014" lon="10.926869657932912"><ele>328.0</ele><time>2026-04-12T08:58:39.002Z</time></trkpt><trkpt lat="43.830722048468196" lon="10.926932322765287"><ele>328.0</ele><time>2026-04-12T08:58:43.002Z</time></trkpt><trkpt lat="43.83077261681475" lon="10.926993579378296"><ele>329.71428571428567</ele><time>2026-04-12T08:58:46.002Z</time></trkpt><trkpt lat="43.83082716975023" lon="10.927054789619017"><ele>331.42857142857144</ele><time>2026-04-12T08:58:50.002Z</time></trkpt><trkpt lat="43.830895549910096" lon="10.92711155102992"><ele>333.1428571428571</ele><time>2026-04-12T08:58:54.002Z</time></trkpt><trkpt lat="43.83096685550122" lon="10.927126228199947"><ele>334.85714285714283</ele><time>2026-04-12T08:58:57.002Z</time></trkpt><trkpt lat="43.83103456660028" lon="10.92714242434584"><ele>336.57142857142856</ele><time>2026-04-12T08:59:00.002Z</time></trkpt><trkpt lat="43.83109833516315" lon="10.927174779952896"><ele>338.2857142857143</ele><time>2026-04-12T08:59:03.002Z</time></trkpt><trkpt lat="43.831172977803" lon="10.927201059715516"><ele>340.0</ele><time>2026-04-12T08:59:07.002Z</time></trkpt><trkpt lat="43.83124626849053" lon="10.927232745822723"><ele>340.0</ele><time>2026-04-12T08:59:11.002Z</time></trkpt><trkpt lat="43.831319506907654" lon="10.927236826046954"><ele>340.0</ele><time>2026-04-12T08:59:15.002Z</time></trkpt><trkpt lat="43.83139932208583" lon="10.92727512266197"><ele>340.0</ele><time>2026-04-12T08:59:19.002Z</time></trkpt><trkpt lat="43.83146363456287" lon="10.92731939893857"><ele>340.0</ele><time>2026-04-12T08:59:23.002Z</time></trkpt><trkpt lat="43.83153489729783" lon="10.927379149378135"><ele>340.0</ele><time>2026-04-12T08:59:27.002Z</time></trkpt><trkpt lat="43.831598812592894" lon="10.92744866888808"><ele>340.0</ele><time>2026-04-12T08:59:32.002Z</time></trkpt><trkpt lat="43.83164519155182" lon="10.927523463053836"><ele>340.0</ele><time>2026-04-12T08:59:36.002Z</time></trkpt><trkpt lat="43.8316841698515" lon="10.927620397702123"><ele>340.0</ele><time>2026-04-12T08:59:40.002Z</time></trkpt><trkpt lat="43.831748058114876" lon="10.927681452495943"><ele>340.0</ele><time>2026-04-12T08:59:44.002Z</time></trkpt><trkpt lat="43.8317843975951" lon="10.927762293611728"><ele>340.0</ele><time>2026-04-12T08:59:48.002Z</time></trkpt><trkpt lat="43.831832136144136" lon="10.927841828601165"><ele>340.0</ele><time>2026-04-12T08:59:52.002Z</time></trkpt><trkpt lat="43.83188235785401" lon="10.92791949852094"><ele>340.0</ele><time>2026-04-12T08:59:56.003Z</time></trkpt><trkpt lat="43.83191761175031" lon="10.92801643748527"><ele>340.0</ele><time>2026-04-12T09:00:00.003Z</time></trkpt><trkpt lat="43.83198148093596" lon="10.92809179171772"><ele>340.0</ele><time>2026-04-12T09:00:04.003Z</time></trkpt><trkpt lat="43.83203137048166" lon="10.928184633886625"><ele>340.0</ele><time>2026-04-12T09:00:08.003Z</time></trkpt><trkpt lat="43.832073628984055" lon="10.928264804868018"><ele>340.0</ele><time>2026-04-12T09:00:11.003Z</time></trkpt><trkpt lat="43.8321404379979" lon="10.928331433121514"><ele>340.0</ele><time>2026-04-12T09:00:15.003Z</time></trkpt><trkpt lat="43.83219216099428" lon="10.928387051684487"><ele>340.0</ele><time>2026-04-12T09:00:18.003Z</time></trkpt><trkpt lat="43.83224573257797" lon="10.928441020622005"><ele>340.8571428571429</ele><time>2026-04-12T09:00:21.003Z</time></trkpt><trkpt lat="43.8323173932332" lon="10.92848837580733"><ele>341.71428571428567</ele><time>2026-04-12T09:00:26.003Z</time></trkpt><trkpt lat="43.83237862763686" lon="10.92855919049318"><ele>342.57142857142856</ele><time>2026-04-12T09:00:29.003Z</time></trkpt><trkpt lat="43.83243688274396" lon="10.928602036558283"><ele>343.42857142857144</ele><time>2026-04-12T09:00:32.003Z</time></trkpt><trkpt lat="43.83249980630709" lon="10.92862289807554"><ele>344.28571428571433</ele><time>2026-04-12T09:00:35.003Z</time></trkpt><trkpt lat="43.832567341585495" lon="10.928678042478968"><ele>345.1428571428571</ele><time>2026-04-12T09:00:38.003Z</time></trkpt><trkpt lat="43.83263919716457" lon="10.928724059114952"><ele>346.0</ele><time>2026-04-12T09:00:42.003Z</time></trkpt><trkpt lat="43.83269792709063" lon="10.928784537668271"><ele>346.0</ele><time>2026-04-12T09:00:45.003Z</time></trkpt><trkpt lat="43.83276711886479" lon="10.928855548198605"><ele>346.0</ele><time>2026-04-12T09:00:49.002Z</time></trkpt><trkpt lat="43.83283650158058" lon="10.928917055149283"><ele>346.0</ele><time>2026-04-12T09:00:54.002Z</time></trkpt><trkpt lat="43.83290498356185" lon="10.928964735092203"><ele>346.0</ele><time>2026-04-12T09:00:58.002Z</time></trkpt><trkpt lat="43.83294480708942" lon="10.92903346341343"><ele>346.0</ele><time>2026-04-12T09:01:01.002Z</time></trkpt><trkpt lat="43.83299080881548" lon="10.929124912333753"><ele>346.0</ele><time>2026-04-12T09:01:06.002Z</time></trkpt><trkpt lat="43.833024281615835" lon="10.929203258001573"><ele>347.7142857142857</ele><time>2026-04-12T09:01:09.002Z</time></trkpt><trkpt lat="43.83306699591679" lon="10.92926885713939"><ele>349.42857142857144</ele><time>2026-04-12T09:01:12.002Z</time></trkpt><trkpt lat="43.833118482462844" lon="10.929353231362605"><ele>351.14285714285717</ele><time>2026-04-12T09:01:16.002Z</time></trkpt><trkpt lat="43.83314425758686" lon="10.929435345771987"><ele>352.8571428571429</ele><time>2026-04-12T09:01:19.002Z</time></trkpt><trkpt lat="43.83318094775089" lon="10.92952368363533"><ele>354.57142857142856</ele><time>2026-04-12T09:01:23.002Z</time></trkpt><trkpt lat="43.83319275228988" lon="10.929618204218702"><ele>356.28571428571433</ele><time>2026-04-12T09:01:27.002Z</time></trkpt><trkpt lat="43.833210219103265" lon="10.929718329231461"><ele>358.0</ele><time>2026-04-12T09:01:31.002Z</time></trkpt><trkpt lat="43.833217160900574" lon="10.929806790791096"><ele>358.00000000000006</ele><time>2026-04-12T09:01:35.002Z</time></trkpt><trkpt lat="43.8332121691862" lon="10.929896636448408"><ele>358.0</ele><time>2026-04-12T09:01:39.002Z</time></trkpt><trkpt lat="43.833239773881424" lon="10.929990734545456"><ele>358.0</ele><time>2026-04-12T09:01:43.002Z</time></trkpt><trkpt lat="43.83324866378572" lon="10.930081344890699"><ele>358.0</ele><time>2026-04-12T09:01:46.002Z</time></trkpt><trkpt lat="43.83330831578994" lon="10.930160630766483"><ele>358.0</ele><time>2026-04-12T09:01:49.002Z</time></trkpt><trkpt lat="43.83336811721522" lon="10.930220721416829"><ele>358.00000000000006</ele><time>2026-04-12T09:01:52.002Z</time></trkpt><trkpt lat="43.83343329696655" lon="10.930241264597981"><ele>358.0</ele><time>2026-04-12T09:01:55.002Z</time></trkpt><trkpt lat="43.83350029267282" lon="10.930199202434794"><ele>359.66666666666663</ele><time>2026-04-12T09:01:58.002Z</time></trkpt><trkpt lat="43.83357290575743" lon="10.930139357286576"><ele>361.3333333333333</ele><time>2026-04-12T09:02:02.002Z</time></trkpt><trkpt lat="43.833632081017754" lon="10.93006252164677"><ele>363.0</ele><time>2026-04-12T09:02:05.002Z</time></trkpt><trkpt lat="43.833686327317345" lon="10.929972581589729"><ele>364.6666666666667</ele><time>2026-04-12T09:02:09.002Z</time></trkpt><trkpt lat="43.83372874615892" lon="10.929903058547458"><ele>366.33333333333337</ele><time>2026-04-12T09:02:12.002Z</time></trkpt><trkpt lat="43.83377230378778" lon="10.929823448692424"><ele>368.0</ele><time>2026-04-12T09:02:15.002Z</time></trkpt><trkpt lat="43.83382815963952" lon="10.929764310759927"><ele>368.0</ele><time>2026-04-12T09:02:18.002Z</time></trkpt><trkpt lat="43.83389081016603" lon="10.929703432438076"><ele>368.0</ele><time>2026-04-12T09:02:22.002Z</time></trkpt></trkseg></trk></gpx>